Time,TemperatureF,DewpointF,PressureIn,WindDirection,WindDirectionDegrees,WindSpeedMPH,WindSpeedGustMPH,Humidity,HourlyPrecipIn,Conditions,Clouds,dailyrainin,SoftwareType,DateUTC
2013-09-01 00:02:00,84.6,71.8,29.41,South,183,0.0,0.0,65,-99.99,,,-99.99,WSDL version 423,2013-09-01 05:02:00,
2013-09-01 00:03:00,84.7,71.7,29.41,SSW,212,0.0,0.0,65,-99.99,,,-99.99,WSDL version 423,2013-09-01 05:03:00,
2013-09-01 00:04:00,84.7,71.7,29.41,SW,236,0.0,0.0,65,-99.99,,,-99.99,WSDL version 423,2013-09-01 05:04:00,
2013-09-01 00:08:00,84.6,71.7,29.41,SW,225,0.0,0.0,65,-99.99,,,-99.99,WSDL version 423,2013-09-01 05:08:00,
2013-09-01 00:09:00,84.6,71.6,29.41,SSW,193,0.0,0.0,65,-99.99,,,-99.99,WSDL version 423,2013-09-01 05:09:00,
2013-09-01 00:10:00,84.5,71.6,29.41,SSW,200,0.0,0.0,65,-99.99,,,-99.99,WSDL version 423,2013-09-01 05:10:00,
2013-09-01 00:12:00,84.5,71.6,29.41,ENE,63,0.0,0.0,65,-99.99,,,-99.99,WSDL version 423,2013-09-01 05:12:00,
2013-09-01 00:15:00,84.5,71.6,29.38,South,186,0.0,0.0,65,-99.99,,,-99.99,WSDL version 423,2013-09-01 05:15:00,
2013-09-01 00:16:00,84.5,71.6,29.38,South,188,0.0,0.0,65,-99.99,,,-99.99,WSDL version 423,2013-09-01 05:16:00,
2013-09-01 00:18:00,84.5,71.6,29.38,South,191,0.0,0.0,65,-99.99,,,-99.99,WSDL version 423,2013-09-01 05:18:00,
2013-09-01 00:20:00,84.5,71.4,29.38,South,170,0.0,0.0,64,-99.99,,,-99.99,WSDL version 423,2013-09-01 05:20:00,
2013-09-01 00:21:00,84.5,71.3,29.38,SE,146,0.0,0.0,64,-99.99,,,-99.99,WSDL version 423,2013-09-01 05:21:00,
2013-09-01 00:23:00,84.5,71.2,29.38,South,188,0.0,0.0,65,-99.99,,,-99.99,WSDL version 423,2013-09-01 05:23:00,
2013-09-01 00:25:00,84.5,71.2,29.38,South,180,0.0,0.0,64,-99.99,,,-99.99,WSDL version 423,2013-09-01 05:25:00,
2013-09-01 00:26:00,84.5,71.3,29.38,South,180,0.0,0.0,64,-99.99,,,-99.99,WSDL version 423,2013-09-01 05:26:00,
2013-09-01 00:28:00,84.6,71.2,29.38,South,188,0.0,0.0,64,-99.99,,,-99.99,WSDL version 423,2013-09-01 05:28:00,
2013-09-01 00:30:00,84.7,71.3,29.38,SSW,195,0.0,0.0,64,-99.99,,,-99.99,WSDL version 423,2013-09-01 05:30:00,
2013-09-01 00:31:00,84.7,71.3,29.38,SSW,203,0.0,0.0,64,-99.99,,,-99.99,WSDL version 423,2013-09-01 05:31:00,
2013-09-01 00:32:00,84.7,71.3,29.38,SSW,197,0.0,0.0,64,-99.99,,,-99.99,WSDL version 423,2013-09-01 05:32:00,
2013-09-01 00:33:00,84.6,71.2,29.38,SSW,198,0.0,0.0,64,-99.99,,,-99.99,WSDL version 423,2013-09-01 05:33:00,
2013-09-01 00:36:00,84.5,71.1,29.38,South,185,0.0,0.0,64,-99.99,,,-99.99,WSDL version 423,2013-09-01 05:36:00,
2013-09-01 00:38:00,84.4,71.0,29.38,South,186,0.0,0.0,64,-99.99,,,-99.99,WSDL version 423,2013-09-01 05:38:00,
2013-09-01 00:39:00,84.3,70.9,29.38,SSW,194,0.0,0.0,64,-99.99,,,-99.99,WSDL version 423,2013-09-01 05:39:00,
2013-09-01 00:41:00,84.2,70.9,29.38,SSW,200,0.0,0.0,64,-99.99,,,-99.99,WSDL version 423,2013-09-01 05:41:00,
2013-09-01 00:43:00,84.2,70.9,29.38,South,188,0.0,0.0,65,-99.99,,,-99.99,WSDL version 423,2013-09-01 05:43:00,
2013-09-01 00:44:00,84.2,70.9,29.38,SSW,203,0.0,0.0,65,-99.99,,,-99.99,WSDL version 423,2013-09-01 05:44:00,
2013-09-01 00:45:00,84.2,71.0,29.38,South,186,0.0,0.0,65,-99.99,,,-99.99,WSDL version 423,2013-09-01 05:45:00,
2013-09-01 00:46:00,84.2,71.1,29.38,SSE,149,0.0,0.0,65,-99.99,,,-99.99,WSDL version 423,2013-09-01 05:46:00,
2013-09-01 00:48:00,84.2,71.2,29.38,South,188,0.0,0.0,65,-99.99,,,-99.99,WSDL version 423,2013-09-01 05:48:00,
2013-09-01 00:49:00,84.2,71.2,29.38,SSE,167,0.0,0.0,65,-99.99,,,-99.99,WSDL version 423,2013-09-01 05:49:00,
2013-09-01 00:51:00,84.3,71.3,29.38,South,180,0.0,0.0,65,-99.99,,,-99.99,WSDL version 423,2013-09-01 05:51:00,
2013-09-01 00:52:00,84.3,71.3,29.38,South,177,0.0,0.0,65,-99.99,,,-99.99,WSDL version 423,2013-09-01 05:52:00,
2013-09-01 00:55:00,84.2,71.2,29.38,SSW,208,0.0,0.0,64,-99.99,,,-99.99,WSDL version 423,2013-09-01 05:55:00,
2013-09-01 00:57:00,84.2,71.1,29.38,WSW,253,0.0,0.0,65,-99.99,,,-99.99,WSDL version 423,2013-09-01 05:57:00,
2013-09-01 00:58:00,84.2,71.1,29.38,West,263,0.0,0.0,65,-99.99,,,-99.99,WSDL version 423,2013-09-01 05:58:00,
2013-09-01 01:01:00,84.2,71.1,29.38,SW,220,0.0,0.0,65,-99.99,,,-99.99,WSDL version 423,2013-09-01 06:01:00,
2013-09-01 01:02:00,84.2,71.1,29.38,SW,225,0.0,0.0,65,-99.99,,,-99.99,WSDL version 423,2013-09-01 06:02:00,
2013-09-01 01:03:00,84.2,71.1,29.38,SSW,196,0.0,0.0,65,-99.99,,,-99.99,WSDL version 423,2013-09-01 06:03:00,
2013-09-01 01:04:00,84.2,71.1,29.38,South,183,0.0,0.0,65,-99.99,,,-99.99,WSDL version 423,2013-09-01 06:04:00,
2013-09-01 01:05:00,84.2,71.3,29.38,South,185,0.0,0.0,65,-99.99,,,-99.99,WSDL version 423,2013-09-01 06:05:00,
2013-09-01 01:08:00,84.4,71.4,29.38,South,185,0.0,0.0,64,-99.99,,,-99.99,WSDL version 423,2013-09-01 06:08:00,
2013-09-01 01:09:00,84.4,71.3,29.38,South,183,0.0,0.0,64,-99.99,,,-99.99,WSDL version 423,2013-09-01 06:09:00,
2013-09-01 01:10:00,84.5,71.3,29.38,South,191,0.0,0.0,64,-99.99,,,-99.99,WSDL version 423,2013-09-01 06:10:00,
2013-09-01 01:11:00,84.5,71.2,29.38,South,188,0.0,0.0,64,-99.99,,,-99.99,WSDL version 423,2013-09-01 06:11:00,
2013-09-01 01:15:00,84.4,71.0,29.38,SW,214,0.0,0.0,64,-99.99,,,-99.99,WSDL version 423,2013-09-01 06:15:00,
2013-09-01 01:17:00,84.3,70.9,29.38,South,183,0.0,0.0,64,-99.99,,,-99.99,WSDL version 423,2013-09-01 06:17:00,
2013-09-01 01:20:00,84.2,70.8,29.38,South,186,0.0,0.0,64,-99.99,,,-99.99,WSDL version 423,2013-09-01 06:20:00,
2013-09-01 01:21:00,84.2,70.8,29.38,South,183,0.0,0.0,64,-99.99,,,-99.99,WSDL version 423,2013-09-01 06:21:00,
2013-09-01 01:24:00,84.3,70.9,29.38,SSW,203,0.0,0.0,64,-99.99,,,-99.99,WSDL version 423,2013-09-01 06:24:00,
2013-09-01 01:26:00,84.3,70.9,29.38,South,180,0.0,0.0,64,-99.99,,,-99.99,WSDL version 423,2013-09-01 06:26:00,
2013-09-01 01:27:00,84.3,70.9,29.38,South,172,0.0,0.0,64,-99.99,,,-99.99,WSDL version 423,2013-09-01 06:27:00,
2013-09-01 01:28:00,84.2,70.8,29.38,South,169,0.0,0.0,64,-99.99,,,-99.99,WSDL version 423,2013-09-01 06:28:00,
2013-09-01 01:29:00,84.2,70.8,29.38,SSW,195,0.0,0.0,64,-99.99,,,-99.99,WSDL version 423,2013-09-01 06:29:00,
2013-09-01 01:30:00,84.2,70.8,29.38,South,190,0.0,0.0,64,-99.99,,,-99.99,WSDL version 423,2013-09-01 06:30:00,
2013-09-01 01:33:00,84.0,70.7,29.38,South,170,0.0,0.0,64,-99.99,,,-99.99,WSDL version 423,2013-09-01 06:33:00,
2013-09-01 01:34:00,84.0,70.7,29.38,South,180,0.0,0.0,64,-99.99,,,-99.99,WSDL version 423,2013-09-01 06:34:00,
2013-09-01 01:35:00,84.0,70.6,29.38,SSW,194,0.0,0.0,64,-99.99,,,-99.99,WSDL version 423,2013-09-01 06:35:00,
2013-09-01 01:36:00,84.0,70.6,29.38,SSW,200,0.0,0.0,64,-99.99,,,-99.99,WSDL version 423,2013-09-01 06:36:00,
2013-09-01 01:40:00,83.9,70.4,29.38,SSE,163,0.0,0.0,64,-99.99,,,-99.99,WSDL version 423,2013-09-01 06:40:00,
2013-09-01 01:42:00,83.8,70.3,29.38,SSW,197,0.0,0.0,64,-99.99,,,-99.99,WSDL version 423,2013-09-01 06:42:00,
2013-09-01 01:45:00,83.9,70.5,29.38,South,183,0.0,0.0,64,-99.99,,,-99.99,WSDL version 423,2013-09-01 06:45:00,
2013-09-01 01:47:00,83.9,70.6,29.38,SSW,193,0.0,0.0,64,-99.99,,,-99.99,WSDL version 423,2013-09-01 06:47:00,
2013-09-01 01:48:00,84.0,70.6,29.38,SSW,200,0.0,0.0,64,-99.99,,,-99.99,WSDL version 423,2013-09-01 06:48:00,
2013-09-01 01:49:00,84.0,70.6,29.38,SSW,200,0.0,0.0,64,-99.99,,,-99.99,WSDL version 423,2013-09-01 06:49:00,
2013-09-01 01:52:00,83.9,70.5,29.38,SSW,194,0.0,0.0,64,-99.99,,,-99.99,WSDL version 423,2013-09-01 06:52:00,
2013-09-01 01:53:00,83.8,70.5,29.38,SSW,198,0.0,0.0,64,-99.99,,,-99.99,WSDL version 423,2013-09-01 06:53:00,
2013-09-01 01:56:00,83.7,70.3,29.38,South,169,0.0,0.0,64,-99.99,,,-99.99,WSDL version 423,2013-09-01 06:56:00,
2013-09-01 01:58:00,83.7,70.4,29.38,South,190,0.0,0.0,64,-99.99,,,-99.99,WSDL version 423,2013-09-01 06:58:00,
2013-09-01 02:00:00,83.8,70.5,29.38,SSW,203,0.0,0.0,64,-99.99,,,-99.99,WSDL version 423,2013-09-01 07:00:00,
2013-09-01 02:01:00,83.8,70.5,29.38,South,178,0.0,0.0,64,-99.99,,,-99.99,WSDL version 423,2013-09-01 07:01:00,
2013-09-01 02:03:00,83.8,70.5,29.38,SSW,197,0.0,0.0,64,-99.99,,,-99.99,WSDL version 423,2013-09-01 07:03:00,
2013-09-01 02:06:00,83.7,70.4,29.38,South,172,0.0,0.0,64,-99.99,,,-99.99,WSDL version 423,2013-09-01 07:06:00,
2013-09-01 02:07:00,83.7,70.3,29.38,South,178,0.0,0.0,64,-99.99,,,-99.99,WSDL version 423,2013-09-01 07:07:00,
2013-09-01 02:08:00,83.6,70.3,29.38,SSE,168,0.0,0.0,64,-99.99,,,-99.99,WSDL version 423,2013-09-01 07:08:00,
2013-09-01 02:10:00,83.6,70.3,29.38,South,169,0.0,0.0,64,-99.99,,,-99.99,WSDL version 423,2013-09-01 07:10:00,
2013-09-01 02:14:00,83.6,70.3,29.38,SSW,200,0.0,0.0,64,-99.99,,,-99.99,WSDL version 423,2013-09-01 07:14:00,
2013-09-01 02:15:00,83.6,70.2,29.38,South,170,0.0,0.0,64,-99.99,,,-99.99,WSDL version 423,2013-09-01 07:15:00,
2013-09-01 02:16:00,83.5,70.2,29.38,South,172,0.0,0.0,64,-99.99,,,-99.99,WSDL version 423,2013-09-01 07:16:00,
2013-09-01 02:17:00,83.5,70.1,29.38,SSW,197,0.0,0.0,64,-99.99,,,-99.99,WSDL version 423,2013-09-01 07:17:00,
2013-09-01 02:20:00,83.2,69.9,29.38,SW,231,0.0,0.0,64,-99.99,,,-99.99,WSDL version 423,2013-09-01 07:20:00,
2013-09-01 02:21:00,83.1,69.9,29.38,SW,214,0.0,0.0,65,-99.99,,,-99.99,WSDL version 423,2013-09-01 07:21:00,
2013-09-01 02:23:00,83.0,70.0,29.38,SSE,158,0.0,0.0,65,-99.99,,,-99.99,WSDL version 423,2013-09-01 07:23:00,
2013-09-01 02:25:00,82.9,70.0,29.38,South,177,0.0,0.0,65,-99.99,,,-99.99,WSDL version 423,2013-09-01 07:25:00,
2013-09-01 02:26:00,82.9,70.0,29.38,SSE,155,0.0,0.0,65,-99.99,,,-99.99,WSDL version 423,2013-09-01 07:26:00,
2013-09-01 02:28:00,82.9,70.0,29.38,South,188,0.0,0.0,65,-99.99,,,-99.99,WSDL version 423,2013-09-01 07:28:00,
2013-09-01 02:30:00,82.9,70.1,29.38,SSW,205,0.0,0.0,66,-99.99,,,-99.99,WSDL version 423,2013-09-01 07:30:00,
2013-09-01 02:33:00,82.8,70.2,29.38,WSW,245,0.0,0.0,66,-99.99,,,-99.99,WSDL version 423,2013-09-01 07:33:00,
2013-09-01 02:34:00,82.7,70.3,29.38,SSW,194,0.0,0.0,66,-99.99,,,-99.99,WSDL version 423,2013-09-01 07:34:00,
2013-09-01 02:35:00,82.7,70.3,29.38,SSW,213,0.0,0.0,66,-99.99,,,-99.99,WSDL version 423,2013-09-01 07:35:00,
2013-09-01 02:37:00,82.7,70.3,29.38,SW,236,0.0,0.0,66,-99.99,,,-99.99,WSDL version 423,2013-09-01 07:37:00,
2013-09-01 02:39:00,82.7,70.3,29.38,SW,228,0.0,0.0,66,-99.99,,,-99.99,WSDL version 423,2013-09-01 07:39:00,
2013-09-01 02:40:00,82.7,70.3,29.38,SSW,213,0.0,0.0,66,-99.99,,,-99.99,WSDL version 423,2013-09-01 07:40:00,
2013-09-01 02:42:00,82.7,70.3,29.38,SW,228,0.0,0.0,66,-99.99,,,-99.99,WSDL version 423,2013-09-01 07:42:00,
2013-09-01 02:44:00,82.8,70.3,29.38,South,169,0.0,0.0,66,-99.99,,,-99.99,WSDL version 423,2013-09-01 07:44:00,
2013-09-01 02:45:00,82.8,70.4,29.35,South,180,0.0,0.0,66,-99.99,,,-99.99,WSDL version 423,2013-09-01 07:45:00,
2013-09-01 02:48:00,83.0,70.5,29.35,South,188,0.0,0.0,66,-99.99,,,-99.99,WSDL version 423,2013-09-01 07:48:00,
2013-09-01 02:49:00,83.0,70.5,29.35,South,175,0.0,0.0,66,-99.99,,,-99.99,WSDL version 423,2013-09-01 07:49:00,
2013-09-01 02:50:00,83.0,70.5,29.35,SSE,155,0.0,0.0,66,-99.99,,,-99.99,WSDL version 423,2013-09-01 07:50:00,
2013-09-01 02:52:00,82.9,70.4,29.35,SSE,163,0.0,0.0,66,-99.99,,,-99.99,WSDL version 423,2013-09-01 07:52:00,
2013-09-01 02:55:00,82.9,70.4,29.35,South,186,0.0,0.0,66,-99.99,,,-99.99,WSDL version 423,2013-09-01 07:55:00,
2013-09-01 02:57:00,82.8,70.4,29.35,South,188,0.0,0.0,66,-99.99,,,-99.99,WSDL version 423,2013-09-01 07:57:00,
2013-09-01 02:58:00,82.8,70.4,29.35,SSE,166,0.0,0.0,66,-99.99,,,-99.99,WSDL version 423,2013-09-01 07:58:00,
2013-09-01 02:59:00,82.9,70.4,29.35,South,174,0.0,0.0,66,-99.99,,,-99.99,WSDL version 423,2013-09-01 07:59:00,
2013-09-01 03:00:00,82.9,70.4,29.35,SSW,195,0.0,0.0,66,-99.99,,,-99.99,WSDL version 423,2013-09-01 08:00:00,
2013-09-01 03:01:00,82.9,70.4,29.35,SSW,203,0.0,0.0,66,-99.99,,,-99.99,WSDL version 423,2013-09-01 08:01:00,
2013-09-01 03:03:00,83.0,70.5,29.35,South,188,0.0,0.0,66,-99.99,,,-99.99,WSDL version 423,2013-09-01 08:03:00,
2013-09-01 03:04:00,83.0,70.5,29.35,SSW,193,0.0,0.0,66,-99.99,,,-99.99,WSDL version 423,2013-09-01 08:04:00,
2013-09-01 03:06:00,83.1,70.6,29.35,SSW,199,0.0,0.0,66,-99.99,,,-99.99,WSDL version 423,2013-09-01 08:06:00,
2013-09-01 03:08:00,83.1,70.5,29.35,South,185,0.0,0.0,65,-99.99,,,-99.99,WSDL version 423,2013-09-01 08:08:00,
2013-09-01 03:09:00,83.1,70.5,29.35,SSW,200,0.0,0.0,66,-99.99,,,-99.99,WSDL version 423,2013-09-01 08:09:00,
2013-09-01 03:12:00,83.1,70.4,29.35,South,174,0.0,0.0,65,-99.99,,,-99.99,WSDL version 423,2013-09-01 08:12:00,
2013-09-01 03:14:00,83.0,70.3,29.35,South,175,0.0,0.0,66,-99.99,,,-99.99,WSDL version 423,2013-09-01 08:14:00,
2013-09-01 03:16:00,83.0,70.3,29.35,South,174,0.0,0.0,65,-99.99,,,-99.99,WSDL version 423,2013-09-01 08:16:00,
2013-09-01 03:19:00,83.0,70.4,29.35,South,183,0.0,0.0,66,-99.99,,,-99.99,WSDL version 423,2013-09-01 08:19:00,
2013-09-01 03:20:00,83.0,70.3,29.35,South,186,0.0,0.0,65,-99.99,,,-99.99,WSDL version 423,2013-09-01 08:20:00,
2013-09-01 03:22:00,83.0,70.4,29.35,South,188,0.0,0.0,66,-99.99,,,-99.99,WSDL version 423,2013-09-01 08:22:00,
2013-09-01 03:24:00,83.0,70.4,29.35,South,190,0.0,0.0,66,-99.99,,,-99.99,WSDL version 423,2013-09-01 08:24:00,
2013-09-01 03:25:00,82.9,70.4,29.35,South,190,0.0,0.0,66,-99.99,,,-99.99,WSDL version 423,2013-09-01 08:25:00,
2013-09-01 03:26:00,82.9,70.4,29.35,South,172,0.0,0.0,66,-99.99,,,-99.99,WSDL version 423,2013-09-01 08:26:00,
2013-09-01 03:27:00,82.9,70.4,29.35,SE,143,0.0,0.0,66,-99.99,,,-99.99,WSDL version 423,2013-09-01 08:27:00,
2013-09-01 03:30:00,82.9,70.4,29.38,SSE,163,0.0,0.0,66,-99.99,,,-99.99,WSDL version 423,2013-09-01 08:30:00,
2013-09-01 03:32:00,82.9,70.4,29.38,South,186,0.0,0.0,66,-99.99,,,-99.99,WSDL version 423,2013-09-01 08:32:00,
2013-09-01 03:33:00,82.9,70.4,29.38,SSW,196,0.0,0.0,66,-99.99,,,-99.99,WSDL version 423,2013-09-01 08:33:00,
2013-09-01 03:34:00,82.8,70.3,29.38,SSE,154,0.0,0.0,65,-99.99,,,-99.99,WSDL version 423,2013-09-01 08:34:00,
2013-09-01 03:37:00,82.7,70.1,29.38,NW,315,0.0,0.0,66,-99.99,,,-99.99,WSDL version 423,2013-09-01 08:37:00,
2013-09-01 03:39:00,82.7,70.1,29.38,NW,310,0.0,0.0,66,-99.99,,,-99.99,WSDL version 423,2013-09-01 08:39:00,
2013-09-01 03:40:00,82.7,70.2,29.38,WNW,296,0.0,0.0,67,-99.99,,,-99.99,WSDL version 423,2013-09-01 08:40:00,
2013-09-01 03:41:00,82.6,70.3,29.38,WNW,302,0.0,0.0,67,-99.99,,,-99.99,WSDL version 423,2013-09-01 08:41:00,
2013-09-01 03:42:00,82.5,70.3,29.38,NW,325,0.0,0.0,67,-99.99,,,-99.99,WSDL version 423,2013-09-01 08:42:00,
2013-09-01 03:43:00,82.5,70.4,29.38,NNW,329,0.0,0.0,68,-99.99,,,-99.99,WSDL version 423,2013-09-01 08:43:00,
2013-09-01 03:46:00,82.4,70.9,29.38,NW,315,0.0,0.0,70,-99.99,,,-99.99,WSDL version 423,2013-09-01 08:46:00,
2013-09-01 03:47:00,82.4,71.1,29.38,NW,315,0.0,0.0,70,-99.99,,,-99.99,WSDL version 423,2013-09-01 08:47:00,
2013-09-01 03:48:00,82.4,71.1,29.38,NW,321,0.0,0.0,69,-99.99,,,-99.99,WSDL version 423,2013-09-01 08:48:00,
2013-09-01 03:50:00,82.1,70.1,29.38,NW,318,0.0,0.0,62,-99.99,,,-99.99,WSDL version 423,2013-09-01 08:50:00,
2013-09-01 03:52:00,81.6,67.8,29.38,NNW,330,0.0,0.0,61,-99.99,,,-99.99,WSDL version 423,2013-09-01 08:52:00,
2013-09-01 03:54:00,81.1,66.4,29.38,NW,312,0.0,0.0,61,-99.99,,,-99.99,WSDL version 423,2013-09-01 08:54:00,
2013-09-01 03:55:00,81.0,66.2,29.38,NW,307,0.0,0.0,61,-99.99,,,-99.99,WSDL version 423,2013-09-01 08:55:00,
2013-09-01 03:57:00,80.7,66.0,29.38,North,353,0.0,0.0,62,-99.99,,,-99.99,WSDL version 423,2013-09-01 08:57:00,
2013-09-01 03:59:00,80.6,65.9,29.38,West,276,0.0,0.0,61,-99.99,,,-99.99,WSDL version 423,2013-09-01 08:59:00,
2013-09-01 04:00:00,80.6,65.9,29.41,ENE,68,0.0,0.0,61,-99.99,,,-99.99,WSDL version 423,2013-09-01 09:00:00,
2013-09-01 04:01:00,80.5,65.7,29.41,NW,307,0.0,0.0,60,-99.99,,,-99.99,WSDL version 423,2013-09-01 09:01:00,
2013-09-01 04:04:00,80.1,65.0,29.41,WNW,303,0.0,0.0,61,-99.99,,,-99.99,WSDL version 423,2013-09-01 09:04:00,
2013-09-01 04:05:00,80.0,64.9,29.41,NNW,340,0.0,0.0,61,-99.99,,,-99.99,WSDL version 423,2013-09-01 09:05:00,
2013-09-01 04:06:00,79.8,64.9,29.41,NE,53,0.0,0.0,61,-99.99,,,-99.99,WSDL version 423,2013-09-01 09:06:00,
2013-09-01 04:08:00,79.6,64.6,29.41,North,6,0.0,0.0,60,-99.99,,,-99.99,WSDL version 423,2013-09-01 09:08:00,
2013-09-01 04:09:00,79.5,64.5,29.41,NE,48,0.0,0.0,61,-99.99,,,-99.99,WSDL version 423,2013-09-01 09:09:00,
2013-09-01 04:10:00,79.3,64.3,29.41,NE,48,0.0,0.0,61,-99.99,,,-99.99,WSDL version 423,2013-09-01 09:10:00,
2013-09-01 04:11:00,79.1,64.2,29.41,East,93,0.0,0.0,61,-99.99,,,-99.99,WSDL version 423,2013-09-01 09:11:00,
2013-09-01 04:12:00,79.0,64.2,29.41,North,8,0.0,0.0,61,-99.99,,,-99.99,WSDL version 423,2013-09-01 09:12:00,
2013-09-01 04:13:00,79.0,64.3,29.41,SSE,148,0.0,0.0,62,-99.99,,,-99.99,WSDL version 423,2013-09-01 09:13:00,
2013-09-01 04:15:00,78.8,64.4,29.41,NNW,343,0.0,0.0,62,-99.99,,,-99.99,WSDL version 423,2013-09-01 09:15:00,
2013-09-01 04:16:00,78.8,64.4,29.41,ENE,76,0.0,0.0,62,-99.99,,,-99.99,WSDL version 423,2013-09-01 09:16:00,
2013-09-01 04:17:00,78.8,64.4,29.41,NNE,28,0.0,0.0,62,-99.99,,,-99.99,WSDL version 423,2013-09-01 09:17:00,
2013-09-01 04:18:00,78.7,64.4,29.41,NW,315,0.0,0.0,62,-99.99,,,-99.99,WSDL version 423,2013-09-01 09:18:00,
2013-09-01 04:20:00,78.5,64.5,29.41,NE,42,0.0,0.0,62,-99.99,,,-99.99,WSDL version 423,2013-09-01 09:20:00,
2013-09-01 04:21:00,78.4,64.5,29.41,NE,45,0.0,0.0,63,-99.99,,,-99.99,WSDL version 423,2013-09-01 09:21:00,
2013-09-01 04:22:00,78.3,64.7,29.41,NNE,14,0.0,0.0,63,-99.99,,,-99.99,WSDL version 423,2013-09-01 09:22:00,
2013-09-01 04:23:00,78.3,64.7,29.41,NNE,20,0.0,0.0,63,-99.99,,,-99.99,WSDL version 423,2013-09-01 09:23:00,
2013-09-01 04:26:00,78.2,64.8,29.41,NE,37,0.0,0.0,63,-99.99,,,-99.99,WSDL version 423,2013-09-01 09:26:00,
2013-09-01 04:28:00,78.2,64.9,29.41,NE,50,0.0,0.0,64,-99.99,,,-99.99,WSDL version 423,2013-09-01 09:28:00,
2013-09-01 04:29:00,78.2,65.0,29.41,East,79,0.0,0.0,64,-99.99,,,-99.99,WSDL version 423,2013-09-01 09:29:00,
2013-09-01 04:30:00,78.1,65.0,29.41,East,87,0.0,0.0,64,-99.99,,,-99.99,WSDL version 423,2013-09-01 09:30:00,
2013-09-01 04:31:00,78.0,64.9,29.41,NNE,28,0.0,0.0,64,-99.99,,,-99.99,WSDL version 423,2013-09-01 09:31:00,
2013-09-01 04:32:00,77.9,64.9,29.41,North,4,0.0,0.0,64,-99.99,,,-99.99,WSDL version 423,2013-09-01 09:32:00,
2013-09-01 04:35:00,77.7,64.9,29.41,North,8,0.0,0.0,65,-99.99,,,-99.99,WSDL version 423,2013-09-01 09:35:00,
2013-09-01 04:36:00,77.7,65.0,29.41,SE,132,0.0,0.0,66,-99.99,,,-99.99,WSDL version 423,2013-09-01 09:36:00,
2013-09-01 04:38:00,77.5,65.3,29.41,WNW,298,0.0,0.0,67,-99.99,,,-99.99,WSDL version 423,2013-09-01 09:38:00,
2013-09-01 04:40:00,77.3,65.4,29.41,WNW,293,0.0,0.0,68,-99.99,,,-99.99,WSDL version 423,2013-09-01 09:40:00,
2013-09-01 04:42:00,77.1,65.5,29.41,WNW,295,0.0,0.0,68,-99.99,,,-99.99,WSDL version 423,2013-09-01 09:42:00,
2013-09-01 04:43:00,77.0,65.5,29.41,SE,124,0.0,0.0,68,-99.99,,,-99.99,WSDL version 423,2013-09-01 09:43:00,
2013-09-01 04:44:00,76.9,65.6,29.41,ENE,62,0.0,0.0,69,-99.99,,,-99.99,WSDL version 423,2013-09-01 09:44:00,
2013-09-01 04:47:00,76.5,65.6,29.44,NW,326,0.0,0.0,70,-99.99,,,-99.99,WSDL version 423,2013-09-01 09:47:00,
2013-09-01 04:48:00,76.4,65.7,29.44,North,350,0.0,0.0,71,-99.99,,,-99.99,WSDL version 423,2013-09-01 09:48:00,
2013-09-01 04:49:00,76.3,65.7,29.44,NNE,18,0.0,0.0,71,-99.99,,,-99.99,WSDL version 423,2013-09-01 09:49:00,
2013-09-01 04:51:00,76.0,65.8,29.44,NNE,17,0.0,0.0,72,-99.99,,,-99.99,WSDL version 423,2013-09-01 09:51:00,
2013-09-01 04:54:00,75.8,66.2,29.44,WSW,253,0.0,0.0,73,-99.99,,,-99.99,WSDL version 423,2013-09-01 09:54:00,
2013-09-01 04:58:00,75.4,66.8,29.44,NW,318,0.0,0.0,77,-99.99,,,-99.99,WSDL version 423,2013-09-01 09:58:00,
2013-09-01 04:59:00,75.3,67.0,29.44,NW,323,0.0,0.0,77,-99.99,,,-99.99,WSDL version 423,2013-09-01 09:59:00,
2013-09-01 05:00:00,75.2,67.1,29.44,NNW,343,0.0,0.0,77,-99.99,,,-99.99,WSDL version 423,2013-09-01 10:00:00,
2013-09-01 05:01:00,75.1,67.2,29.44,North,11,0.0,0.0,76,-99.99,,,-99.99,WSDL version 423,2013-09-01 10:01:00,
2013-09-01 05:03:00,75.0,67.1,29.44,North,350,0.0,0.0,76,-99.99,,,-99.99,WSDL version 423,2013-09-01 10:03:00,
2013-09-01 05:04:00,75.0,67.0,29.44,ENE,62,0.0,0.0,76,-99.99,,,-99.99,WSDL version 423,2013-09-01 10:04:00,
2013-09-01 05:05:00,74.9,67.0,29.44,North,354,0.0,0.0,77,-99.99,,,-99.99,WSDL version 423,2013-09-01 10:05:00,
2013-09-01 05:06:00,74.9,67.0,29.44,NE,38,0.0,0.0,77,-99.99,,,-99.99,WSDL version 423,2013-09-01 10:06:00,
2013-09-01 05:08:00,74.9,67.1,29.44,SSW,194,0.0,0.0,77,-99.99,,,-99.99,WSDL version 423,2013-09-01 10:08:00,
2013-09-01 05:09:00,74.8,67.0,29.44,NNW,329,0.0,0.0,76,-99.99,,,-99.99,WSDL version 423,2013-09-01 10:09:00,
2013-09-01 05:10:00,74.8,67.0,29.44,NNE,13,0.0,0.0,77,-99.99,,,-99.99,WSDL version 423,2013-09-01 10:10:00,
2013-09-01 05:14:00,74.9,67.0,29.44,East,80,0.0,0.0,76,-99.99,,,-99.99,WSDL version 423,2013-09-01 10:14:00,
2013-09-01 05:16:00,74.9,67.1,29.44,North,352,0.0,0.0,77,-99.99,,,-99.99,WSDL version 423,2013-09-01 10:16:00,
2013-09-01 05:17:00,74.9,67.2,29.44,East,100,0.0,0.0,78,-99.99,,,-99.99,WSDL version 423,2013-09-01 10:17:00,
2013-09-01 05:18:00,74.9,67.3,29.44,East,84,0.0,0.0,79,-99.99,,,-99.99,WSDL version 423,2013-09-01 10:18:00,
2013-09-01 05:21:00,74.6,67.9,29.44,East,90,0.0,0.0,81,-99.99,,,-99.99,WSDL version 423,2013-09-01 10:21:00,
2013-09-01 05:22:00,74.5,67.9,29.44,East,86,0.0,0.0,81,-99.99,,,-99.99,WSDL version 423,2013-09-01 10:22:00,
2013-09-01 05:23:00,74.3,68.0,29.44,East,94,0.0,0.0,81,-99.99,,,-99.99,WSDL version 423,2013-09-01 10:23:00,
2013-09-01 05:24:00,74.2,68.0,29.44,ESE,121,0.0,0.0,82,-99.99,,,-99.99,WSDL version 423,2013-09-01 10:24:00,
2013-09-01 05:27:00,74.0,68.4,29.44,ESE,108,0.0,0.0,86,-99.99,,,-99.99,WSDL version 423,2013-09-01 10:27:00,
2013-09-01 05:28:00,73.8,68.8,29.44,East,93,0.0,0.0,86,-99.99,,,-99.99,WSDL version 423,2013-09-01 10:28:00,
2013-09-01 05:30:00,73.7,69.1,29.44,East,100,0.0,0.0,86,-99.99,,,-99.99,WSDL version 423,2013-09-01 10:30:00,
2013-09-01 05:32:00,73.6,69.2,29.44,ENE,75,0.0,0.0,87,-99.99,,,-99.99,WSDL version 423,2013-09-01 10:32:00,
2013-09-01 05:34:00,73.6,69.3,29.44,SW,233,0.0,0.0,87,-99.99,,,-99.99,WSDL version 423,2013-09-01 10:34:00,
2013-09-01 05:35:00,73.6,69.4,29.44,WNW,295,0.0,0.0,88,-99.99,,,-99.99,WSDL version 423,2013-09-01 10:35:00,
2013-09-01 05:36:00,73.6,69.5,29.44,WNW,293,0.0,0.0,88,-99.99,,,-99.99,WSDL version 423,2013-09-01 10:36:00,
2013-09-01 05:38:00,73.6,69.8,29.44,NNW,328,0.0,0.0,89,-99.99,,,-99.99,WSDL version 423,2013-09-01 10:38:00,
2013-09-01 05:40:00,73.6,70.1,29.44,North,3,0.0,0.0,89,-99.99,,,-99.99,WSDL version 423,2013-09-01 10:40:00,
2013-09-01 05:41:00,73.6,70.1,29.44,NE,53,0.0,0.0,89,-99.99,,,-99.99,WSDL version 423,2013-09-01 10:41:00,
2013-09-01 05:43:00,73.7,70.2,29.44,East,79,0.0,0.0,89,-99.99,,,-99.99,WSDL version 423,2013-09-01 10:43:00,
2013-09-01 05:44:00,73.6,70.2,29.44,ESE,110,0.0,0.0,90,-99.99,,,-99.99,WSDL version 423,2013-09-01 10:44:00,
2013-09-01 05:47:00,73.6,70.6,29.44,East,95,0.0,0.0,91,-99.99,,,-99.99,WSDL version 423,2013-09-01 10:47:00,
2013-09-01 05:48:00,73.6,70.7,29.44,NE,48,0.0,0.0,92,-99.99,,,-99.99,WSDL version 423,2013-09-01 10:48:00,
2013-09-01 05:50:00,73.6,71.0,29.44,East,93,0.0,0.0,92,-99.99,,,-99.99,WSDL version 423,2013-09-01 10:50:00,
2013-09-01 05:52:00,73.6,71.4,29.44,East,96,0.0,0.0,94,-99.99,,,-99.99,WSDL version 423,2013-09-01 10:52:00,
2013-09-01 05:53:00,73.5,71.6,29.44,ESE,113,0.0,0.0,95,-99.99,,,-99.99,WSDL version 423,2013-09-01 10:53:00,
2013-09-01 05:54:00,73.5,71.7,29.44,ESE,116,0.0,0.0,96,-99.99,,,-99.99,WSDL version 423,2013-09-01 10:54:00,
2013-09-01 05:55:00,73.4,71.9,29.44,ESE,122,0.0,0.0,97,-99.99,,,-99.99,WSDL version 423,2013-09-01 10:55:00,
2013-09-01 05:57:00,73.3,72.1,29.44,ESE,105,0.0,0.0,97,-99.99,,,-99.99,WSDL version 423,2013-09-01 10:57:00,
2013-09-01 05:58:00,73.2,72.2,29.44,SE,124,0.0,0.0,98,-99.99,,,-99.99,WSDL version 423,2013-09-01 10:58:00,
2013-09-01 06:00:00,73.2,72.4,29.41,ESE,109,0.0,0.0,98,-99.99,,,-99.99,WSDL version 423,2013-09-01 11:00:00,
2013-09-01 06:03:00,73.2,72.6,29.41,East,96,0.0,0.0,99,-99.99,,,-99.99,WSDL version 423,2013-09-01 11:03:00,
2013-09-01 06:06:00,73.2,72.8,29.41,NW,304,0.0,0.0,99,-99.99,,,-99.99,WSDL version 423,2013-09-01 11:06:00,
2013-09-01 06:08:00,73.2,72.9,29.41,East,83,0.0,0.0,99,-99.99,,,-99.99,WSDL version 423,2013-09-01 11:08:00,
2013-09-01 06:10:00,73.3,73.1,29.41,East,90,0.0,0.0,100,-99.99,,,-99.99,WSDL version 423,2013-09-01 11:10:00,
2013-09-01 06:13:00,73.4,73.3,29.41,East,90,0.0,0.0,100,-99.99,,,-99.99,WSDL version 423,2013-09-01 11:13:00,
2013-09-01 06:15:00,73.4,73.4,29.38,East,90,0.0,0.0,100,-99.99,,,-99.99,WSDL version 423,2013-09-01 11:15:00,
2013-09-01 06:16:00,73.4,73.4,29.38,ESE,110,0.0,0.0,100,-99.99,,,-99.99,WSDL version 423,2013-09-01 11:16:00,
2013-09-01 06:20:00,73.4,73.4,29.38,ESE,121,0.0,0.0,100,-99.99,,,-99.99,WSDL version 423,2013-09-01 11:20:00,
2013-09-01 06:21:00,73.4,73.4,29.38,SE,125,0.0,0.0,100,-99.99,,,-99.99,WSDL version 423,2013-09-01 11:21:00,
2013-09-01 06:23:00,73.4,73.4,29.38,ESE,110,0.0,0.0,100,-99.99,,,-99.99,WSDL version 423,2013-09-01 11:23:00,
2013-09-01 06:24:00,73.4,73.4,29.38,ESE,103,0.0,0.0,100,-99.99,,,-99.99,WSDL version 423,2013-09-01 11:24:00,
2013-09-01 06:26:00,73.5,73.5,29.38,East,85,0.0,0.0,100,-99.99,,,-99.99,WSDL version 423,2013-09-01 11:26:00,
2013-09-01 06:28:00,73.5,73.5,29.38,East,90,0.0,0.0,100,-99.99,,,-99.99,WSDL version 423,2013-09-01 11:28:00,
2013-09-01 06:29:00,73.5,73.5,29.38,ENE,74,0.0,0.0,100,-99.99,,,-99.99,WSDL version 423,2013-09-01 11:29:00,
2013-09-01 06:30:00,73.5,73.5,29.38,East,82,0.0,0.0,100,-99.99,,,-99.99,WSDL version 423,2013-09-01 11:30:00,
2013-09-01 06:32:00,73.4,73.4,29.38,East,93,0.0,0.0,100,-99.99,,,-99.99,WSDL version 423,2013-09-01 11:32:00,
2013-09-01 06:33:00,73.4,73.4,29.38,East,87,0.0,0.0,100,-99.99,,,-99.99,WSDL version 423,2013-09-01 11:33:00,
2013-09-01 06:38:00,73.6,73.6,29.38,ESE,115,0.0,0.0,100,-99.99,,,-99.99,WSDL version 423,2013-09-01 11:38:00,
2013-09-01 06:39:00,73.6,73.6,29.38,East,98,0.0,0.0,100,-99.99,,,-99.99,WSDL version 423,2013-09-01 11:39:00,
2013-09-01 06:41:00,73.6,73.6,29.38,SE,135,0.0,0.0,100,-99.99,,,-99.99,WSDL version 423,2013-09-01 11:41:00,
2013-09-01 06:44:00,73.7,73.7,29.38,East,90,0.0,0.0,100,-99.99,,,-99.99,WSDL version 423,2013-09-01 11:44:00,
2013-09-01 06:47:00,73.8,73.8,29.38,SSE,152,0.0,0.0,100,-99.99,,,-99.99,WSDL version 423,2013-09-01 11:47:00,
2013-09-01 06:51:00,73.9,73.9,29.38,ESE,105,0.0,0.0,100,-99.99,,,-99.99,WSDL version 423,2013-09-01 11:51:00,
2013-09-01 06:52:00,73.8,73.8,29.38,ESE,103,0.0,0.0,100,-99.99,,,-99.99,WSDL version 423,2013-09-01 11:52:00,
2013-09-01 06:53:00,73.8,73.8,29.38,East,101,0.0,0.0,100,-99.99,,,-99.99,WSDL version 423,2013-09-01 11:53:00,
2013-09-01 06:54:00,73.8,73.8,29.38,ESE,105,0.0,0.0,100,-99.99,,,-99.99,WSDL version 423,2013-09-01 11:54:00,
2013-09-01 06:56:00,73.9,73.9,29.38,West,262,0.0,0.0,100,-99.99,,,-99.99,WSDL version 423,2013-09-01 11:56:00,
2013-09-01 06:57:00,74.0,74.0,29.38,West,276,0.0,0.0,100,-99.99,,,-99.99,WSDL version 423,2013-09-01 11:57:00,
2013-09-01 07:00:00,74.1,74.1,29.38,WNW,287,0.0,0.0,100,-99.99,,,-99.99,WSDL version 423,2013-09-01 12:00:00,
2013-09-01 07:01:00,74.1,74.1,29.38,WNW,293,0.0,0.0,100,-99.99,,,-99.99,WSDL version 423,2013-09-01 12:01:00,
2013-09-01 07:02:00,74.1,74.1,29.38,WNW,295,0.0,0.0,100,-99.99,,,-99.99,WSDL version 423,2013-09-01 12:02:00,
2013-09-01 07:05:00,74.1,74.1,29.38,NW,315,0.0,0.0,100,-99.99,,,-99.99,WSDL version 423,2013-09-01 12:05:00,
2013-09-01 07:07:00,74.1,74.1,29.38,NW,315,0.0,0.0,100,-99.99,,,-99.99,WSDL version 423,2013-09-01 12:07:00,
2013-09-01 07:08:00,74.2,74.2,29.38,NW,315,0.0,0.0,100,-99.99,,,-99.99,WSDL version 423,2013-09-01 12:08:00,
2013-09-01 07:12:00,74.3,74.3,29.38,NW,315,0.0,0.0,100,-99.99,,,-99.99,WSDL version 423,2013-09-01 12:12:00,
2013-09-01 07:13:00,74.3,74.3,29.38,NW,305,0.0,0.0,100,-99.99,,,-99.99,WSDL version 423,2013-09-01 12:13:00,
2013-09-01 07:16:00,74.4,74.4,29.38,WNW,293,0.0,0.0,100,-99.99,,,-99.99,WSDL version 423,2013-09-01 12:16:00,
2013-09-01 07:17:00,74.5,74.5,29.38,WNW,293,0.0,0.0,100,-99.99,,,-99.99,WSDL version 423,2013-09-01 12:17:00,
2013-09-01 07:18:00,74.5,74.5,29.38,WNW,293,0.0,0.0,100,-99.99,,,-99.99,WSDL version 423,2013-09-01 12:18:00,
2013-09-01 07:20:00,74.4,74.4,29.38,WNW,293,0.0,0.0,100,-99.99,,,-99.99,WSDL version 423,2013-09-01 12:20:00,
2013-09-01 07:23:00,74.3,74.3,29.38,North,349,0.0,0.0,100,-99.99,,,-99.99,WSDL version 423,2013-09-01 12:23:00,
2013-09-01 07:24:00,74.3,74.3,29.38,NE,45,0.0,0.0,100,-99.99,,,-99.99,WSDL version 423,2013-09-01 12:24:00,
2013-09-01 07:27:00,74.3,74.3,29.38,ENE,75,0.0,0.0,100,-99.99,,,-99.99,WSDL version 423,2013-09-01 12:27:00,
2013-09-01 07:28:00,74.3,74.3,29.38,East,87,0.0,0.0,100,-99.99,,,-99.99,WSDL version 423,2013-09-01 12:28:00,
2013-09-01 07:29:00,74.3,74.3,29.38,East,90,0.0,0.0,100,-99.99,,,-99.99,WSDL version 423,2013-09-01 12:29:00,
2013-09-01 07:31:00,74.3,74.3,29.41,East,90,0.0,0.0,100,-99.99,,,-99.99,WSDL version 423,2013-09-01 12:31:00,
2013-09-01 07:33:00,74.4,74.4,29.41,East,90,0.0,0.0,100,-99.99,,,-99.99,WSDL version 423,2013-09-01 12:33:00,
2013-09-01 07:34:00,74.4,74.4,29.41,East,90,0.0,0.0,100,-99.99,,,-99.99,WSDL version 423,2013-09-01 12:34:00,
2013-09-01 07:36:00,74.5,74.5,29.41,East,90,0.0,0.0,100,-99.99,,,-99.99,WSDL version 423,2013-09-01 12:36:00,
2013-09-01 07:38:00,74.5,74.5,29.41,ESE,113,0.0,0.0,100,-99.99,,,-99.99,WSDL version 423,2013-09-01 12:38:00,
2013-09-01 07:39:00,74.6,74.6,29.41,SE,145,0.0,0.0,100,-99.99,,,-99.99,WSDL version 423,2013-09-01 12:39:00,
2013-09-01 07:40:00,74.6,74.6,29.41,SSE,166,0.0,0.0,100,-99.99,,,-99.99,WSDL version 423,2013-09-01 12:40:00,
2013-09-01 07:43:00,74.6,74.6,29.41,SSE,160,0.0,0.0,100,-99.99,,,-99.99,WSDL version 423,2013-09-01 12:43:00,
2013-09-01 07:44:00,74.6,74.6,29.41,South,180,0.0,0.0,100,-99.99,,,-99.99,WSDL version 423,2013-09-01 12:44:00,
2013-09-01 07:45:00,74.6,74.6,29.41,SSE,167,0.0,0.0,100,-99.99,,,-99.99,WSDL version 423,2013-09-01 12:45:00,
2013-09-01 07:48:00,74.6,74.6,29.41,South,175,0.0,0.0,99,-99.99,,,-99.99,WSDL version 423,2013-09-01 12:48:00,
2013-09-01 07:49:00,74.6,74.5,29.41,South,180,0.0,0.0,99,-99.99,,,-99.99,WSDL version 423,2013-09-01 12:49:00,
2013-09-01 07:50:00,74.6,74.5,29.41,South,170,0.0,0.0,99,-99.99,,,-99.99,WSDL version 423,2013-09-01 12:50:00,
2013-09-01 07:51:00,74.6,74.4,29.41,SSE,168,0.0,0.0,99,-99.99,,,-99.99,WSDL version 423,2013-09-01 12:51:00,
2013-09-01 07:53:00,74.6,74.3,29.41,SSE,154,0.0,0.0,99,-99.99,,,-99.99,WSDL version 423,2013-09-01 12:53:00,
2013-09-01 07:56:00,74.5,74.2,29.41,SSE,149,0.0,0.0,99,-99.99,,,-99.99,WSDL version 423,2013-09-01 12:56:00,
2013-09-01 07:57:00,74.5,74.2,29.41,SE,138,0.0,0.0,99,-99.99,,,-99.99,WSDL version 423,2013-09-01 12:57:00,
2013-09-01 08:02:00,74.4,73.9,29.44,SSW,213,0.0,0.0,98,-99.99,,,-99.99,WSDL version 423,2013-09-01 13:02:00,
2013-09-01 08:03:00,74.4,73.8,29.44,SSW,211,0.0,0.0,98,-99.99,,,-99.99,WSDL version 423,2013-09-01 13:03:00,
2013-09-01 08:04:00,74.4,73.7,29.44,South,188,0.0,0.0,98,-99.99,,,-99.99,WSDL version 423,2013-09-01 13:04:00,
2013-09-01 08:05:00,74.3,73.7,29.44,SSE,160,0.0,0.0,98,-99.99,,,-99.99,WSDL version 423,2013-09-01 13:05:00,
2013-09-01 08:06:00,74.3,73.6,29.44,SSE,163,0.0,0.0,98,-99.99,,,-99.99,WSDL version 423,2013-09-01 13:06:00,
2013-09-01 08:08:00,74.3,73.6,29.44,SSE,148,0.0,0.0,98,-99.99,,,-99.99,WSDL version 423,2013-09-01 13:08:00,
2013-09-01 08:10:00,74.3,73.6,29.44,SSE,149,0.0,0.0,98,-99.99,,,-99.99,WSDL version 423,2013-09-01 13:10:00,
2013-09-01 08:13:00,74.3,73.5,29.44,SE,125,0.0,0.0,97,-99.99,,,-99.99,WSDL version 423,2013-09-01 13:13:00,
2013-09-01 08:14:00,74.2,73.4,29.44,ESE,107,0.0,0.0,97,-99.99,,,-99.99,WSDL version 423,2013-09-01 13:14:00,
2013-09-01 08:17:00,74.1,73.1,29.41,SSE,158,0.0,0.0,97,-99.99,,,-99.99,WSDL version 423,2013-09-01 13:17:00,
2013-09-01 08:18:00,74.1,73.1,29.41,SSE,168,0.0,0.0,97,-99.99,,,-99.99,WSDL version 423,2013-09-01 13:18:00,
2013-09-01 08:19:00,74.1,73.1,29.41,South,169,0.0,0.0,97,-99.99,,,-99.99,WSDL version 423,2013-09-01 13:19:00,
2013-09-01 08:21:00,74.1,73.1,29.41,South,172,0.0,0.0,97,-99.99,,,-99.99,WSDL version 423,2013-09-01 13:21:00,
2013-09-01 08:24:00,74.0,73.0,29.41,South,177,0.0,0.0,97,-99.99,,,-99.99,WSDL version 423,2013-09-01 13:24:00,
2013-09-01 08:25:00,74.0,72.9,29.41,SW,214,0.0,0.0,97,-99.99,,,-99.99,WSDL version 423,2013-09-01 13:25:00,
2013-09-01 08:26:00,73.9,72.9,29.41,SW,217,0.0,0.0,97,-99.99,,,-99.99,WSDL version 423,2013-09-01 13:26:00,
2013-09-01 08:29:00,73.9,72.9,29.41,SE,135,0.0,0.0,97,-99.99,,,-99.99,WSDL version 423,2013-09-01 13:29:00,
2013-09-01 08:30:00,73.9,72.9,29.41,SSE,155,0.0,0.0,97,-99.99,,,-99.99,WSDL version 423,2013-09-01 13:30:00,
2013-09-01 08:31:00,73.8,72.8,29.41,SSW,194,0.0,0.0,97,-99.99,,,-99.99,WSDL version 423,2013-09-01 13:31:00,
2013-09-01 08:32:00,73.8,72.8,29.41,SSW,200,0.0,0.0,97,-99.99,,,-99.99,WSDL version 423,2013-09-01 13:32:00,
2013-09-01 08:33:00,73.8,72.8,29.41,South,178,0.0,0.0,97,-99.99,,,-99.99,WSDL version 423,2013-09-01 13:33:00,
2013-09-01 08:34:00,73.7,72.7,29.41,SE,145,0.0,0.0,97,-99.99,,,-99.99,WSDL version 423,2013-09-01 13:34:00,
2013-09-01 08:35:00,73.7,72.7,29.41,SSE,158,0.0,0.0,97,-99.99,,,-99.99,WSDL version 423,2013-09-01 13:35:00,
2013-09-01 08:39:00,73.7,72.7,29.41,South,188,0.0,0.0,97,-99.99,,,-99.99,WSDL version 423,2013-09-01 13:39:00,
2013-09-01 08:40:00,73.7,72.7,29.41,SSW,200,0.0,0.0,97,-99.99,,,-99.99,WSDL version 423,2013-09-01 13:40:00,
2013-09-01 08:41:00,73.7,72.7,29.41,South,186,0.0,0.0,97,-99.99,,,-99.99,WSDL version 423,2013-09-01 13:41:00,
2013-09-01 08:45:00,73.7,72.7,29.41,SSE,158,0.0,0.0,97,-99.99,,,-99.99,WSDL version 423,2013-09-01 13:45:00,
2013-09-01 08:47:00,73.6,72.6,29.41,South,170,0.0,0.0,97,-99.99,,,-99.99,WSDL version 423,2013-09-01 13:47:00,
2013-09-01 08:48:00,73.6,72.6,29.41,South,174,0.0,0.0,97,-99.99,,,-99.99,WSDL version 423,2013-09-01 13:48:00,
2013-09-01 08:51:00,73.6,72.4,29.41,SW,225,0.0,0.0,96,-99.99,,,-99.99,WSDL version 423,2013-09-01 13:51:00,
2013-09-01 08:53:00,73.6,72.3,29.41,WSW,258,0.0,0.0,96,-99.99,,,-99.99,WSDL version 423,2013-09-01 13:53:00,
2013-09-01 08:54:00,73.6,72.2,29.41,SSW,193,0.0,0.0,96,-99.99,,,-99.99,WSDL version 423,2013-09-01 13:54:00,
2013-09-01 08:55:00,73.6,72.2,29.41,South,180,0.0,0.0,96,-99.99,,,-99.99,WSDL version 423,2013-09-01 13:55:00,
2013-09-01 08:57:00,73.6,72.2,29.41,South,183,0.0,0.0,96,-99.99,,,-99.99,WSDL version 423,2013-09-01 13:57:00,
2013-09-01 08:58:00,73.6,72.2,29.41,SSW,205,0.0,0.0,96,-99.99,,,-99.99,WSDL version 423,2013-09-01 13:58:00,
2013-09-01 09:01:00,73.6,72.2,29.41,South,190,0.0,0.0,96,-99.99,,,-99.99,WSDL version 423,2013-09-01 14:01:00,
2013-09-01 09:02:00,73.6,72.2,29.41,SW,228,0.0,0.0,96,-99.99,,,-99.99,WSDL version 423,2013-09-01 14:02:00,
2013-09-01 09:03:00,73.6,72.2,29.41,SSW,203,0.0,0.0,96,-99.99,,,-99.99,WSDL version 423,2013-09-01 14:03:00,
2013-09-01 09:06:00,73.6,72.4,29.41,NW,309,0.0,0.0,97,-99.99,,,-99.99,WSDL version 423,2013-09-01 14:06:00,
2013-09-01 09:08:00,73.6,72.6,29.41,SSE,160,0.0,0.0,97,-99.99,,,-99.99,WSDL version 423,2013-09-01 14:08:00,
2013-09-01 09:09:00,73.6,72.6,29.41,South,183,0.0,0.0,97,-99.99,,,-99.99,WSDL version 423,2013-09-01 14:09:00,
2013-09-01 09:11:00,73.6,72.6,29.41,SSE,149,0.0,0.0,97,-99.99,,,-99.99,WSDL version 423,2013-09-01 14:11:00,
2013-09-01 09:12:00,73.6,72.6,29.41,SSE,158,0.0,0.0,97,-99.99,,,-99.99,WSDL version 423,2013-09-01 14:12:00,
2013-09-01 09:13:00,73.6,72.6,29.41,South,169,0.0,0.0,97,-99.99,,,-99.99,WSDL version 423,2013-09-01 14:13:00,
2013-09-01 09:14:00,73.6,72.6,29.41,SSE,160,0.0,0.0,97,-99.99,,,-99.99,WSDL version 423,2013-09-01 14:14:00,
2013-09-01 09:16:00,73.6,72.6,29.41,SSE,166,0.0,0.0,97,-99.99,,,-99.99,WSDL version 423,2013-09-01 14:16:00,
2013-09-01 09:20:00,73.7,72.7,29.41,SSW,194,0.0,0.0,97,-99.99,,,-99.99,WSDL version 423,2013-09-01 14:20:00,
2013-09-01 09:21:00,73.7,72.7,29.41,SSW,195,0.0,0.0,97,-99.99,,,-99.99,WSDL version 423,2013-09-01 14:21:00,
2013-09-01 09:22:00,73.7,72.7,29.41,SSW,195,0.0,0.0,97,-99.99,,,-99.99,WSDL version 423,2013-09-01 14:22:00,
2013-09-01 09:23:00,73.7,72.7,29.41,South,180,0.0,0.0,97,-99.99,,,-99.99,WSDL version 423,2013-09-01 14:23:00,
2013-09-01 09:24:00,73.7,72.7,29.41,SE,132,0.0,0.0,97,-99.99,,,-99.99,WSDL version 423,2013-09-01 14:24:00,
2013-09-01 09:25:00,73.7,72.7,29.41,South,169,0.0,0.0,97,-99.99,,,-99.99,WSDL version 423,2013-09-01 14:25:00,
2013-09-01 09:28:00,73.8,72.8,29.41,NE,34,0.0,0.0,97,-99.99,,,-99.99,WSDL version 423,2013-09-01 14:28:00,
2013-09-01 09:30:00,73.8,72.8,29.41,WNW,293,0.0,0.0,97,-99.99,,,-99.99,WSDL version 423,2013-09-01 14:30:00,
2013-09-01 09:31:00,73.9,72.9,29.41,SSE,158,0.0,0.0,97,-99.99,,,-99.99,WSDL version 423,2013-09-01 14:31:00,
2013-09-01 09:33:00,73.9,72.9,29.41,SSE,153,0.0,0.0,97,-99.99,,,-99.99,WSDL version 423,2013-09-01 14:33:00,
2013-09-01 09:35:00,74.0,73.0,29.41,SSW,213,0.0,0.0,97,-99.99,,,-99.99,WSDL version 423,2013-09-01 14:35:00,
2013-09-01 09:36:00,74.0,73.0,29.41,South,185,0.0,0.0,97,-99.99,,,-99.99,WSDL version 423,2013-09-01 14:36:00,
2013-09-01 09:37:00,74.1,73.1,29.41,SSE,160,0.0,0.0,97,-99.99,,,-99.99,WSDL version 423,2013-09-01 14:37:00,
2013-09-01 09:38:00,74.2,73.2,29.41,SSW,208,0.0,0.0,97,-99.99,,,-99.99,WSDL version 423,2013-09-01 14:38:00,
2013-09-01 09:40:00,74.4,73.4,29.41,SE,133,0.0,0.0,97,-99.99,,,-99.99,WSDL version 423,2013-09-01 14:40:00,
2013-09-01 09:41:00,74.5,73.5,29.41,South,169,0.0,0.0,98,-99.99,,,-99.99,WSDL version 423,2013-09-01 14:41:00,
2013-09-01 09:43:00,74.6,73.8,29.41,SSE,148,0.0,0.0,98,-99.99,,,-99.99,WSDL version 423,2013-09-01 14:43:00,
2013-09-01 09:44:00,74.7,73.9,29.41,SE,138,0.0,0.0,98,-99.99,,,-99.99,WSDL version 423,2013-09-01 14:44:00,
2013-09-01 09:45:00,74.9,74.2,29.41,South,172,0.0,0.0,98,-99.99,,,-99.99,WSDL version 423,2013-09-01 14:45:00,
2013-09-01 09:46:00,75.0,74.3,29.41,South,180,0.0,0.0,98,-99.99,,,-99.99,WSDL version 423,2013-09-01 14:46:00,
2013-09-01 09:47:00,75.1,74.4,29.41,South,183,0.0,0.0,98,-99.99,,,-99.99,WSDL version 423,2013-09-01 14:47:00,
2013-09-01 09:51:00,75.3,74.5,29.41,South,191,0.0,0.0,97,-99.99,,,-99.99,WSDL version 423,2013-09-01 14:51:00,
2013-09-01 09:52:00,75.4,74.5,29.41,SSW,205,0.0,0.0,97,-99.99,,,-99.99,WSDL version 423,2013-09-01 14:52:00,
2013-09-01 09:53:00,75.4,74.3,29.41,South,173,0.0,0.0,97,-99.99,,,-99.99,WSDL version 423,2013-09-01 14:53:00,
2013-09-01 09:57:00,75.5,74.1,29.41,SSE,160,0.0,0.0,96,-99.99,,,-99.99,WSDL version 423,2013-09-01 14:57:00,
2013-09-01 09:58:00,75.5,74.1,29.41,South,174,0.0,0.0,96,-99.99,,,-99.99,WSDL version 423,2013-09-01 14:58:00,
2013-09-01 09:59:00,75.5,74.2,29.41,SSE,154,0.0,0.0,96,-99.99,,,-99.99,WSDL version 423,2013-09-01 14:59:00,
2013-09-01 10:02:00,75.6,74.3,29.44,SW,231,0.0,0.0,96,-99.99,,,-99.99,WSDL version 423,2013-09-01 15:02:00,
2013-09-01 10:04:00,75.8,74.4,29.44,SSW,203,0.0,0.0,96,-99.99,,,-99.99,WSDL version 423,2013-09-01 15:04:00,
2013-09-01 10:06:00,75.9,74.5,29.44,NNE,23,0.0,0.0,96,-99.99,,,-99.99,WSDL version 423,2013-09-01 15:06:00,
2013-09-01 10:07:00,76.0,74.5,29.44,NE,39,0.0,0.0,94,-99.99,,,-99.99,WSDL version 423,2013-09-01 15:07:00,
2013-09-01 10:12:00,76.5,74.8,29.44,SE,135,0.0,0.0,94,-99.99,,,-99.99,WSDL version 423,2013-09-01 15:12:00,
2013-09-01 10:13:00,76.5,74.8,29.44,SSE,163,0.0,0.0,93,-99.99,,,-99.99,WSDL version 423,2013-09-01 15:13:00,
2013-09-01 10:14:00,76.6,74.8,29.44,South,175,0.0,0.0,93,-99.99,,,-99.99,WSDL version 423,2013-09-01 15:14:00,
2013-09-01 10:18:00,76.9,74.7,29.44,South,188,0.0,0.0,92,-99.99,,,-99.99,WSDL version 423,2013-09-01 15:18:00,
2013-09-01 10:19:00,76.9,74.6,29.44,SE,141,0.0,0.0,92,-99.99,,,-99.99,WSDL version 423,2013-09-01 15:19:00,
2013-09-01 10:21:00,77.0,74.7,29.44,SE,129,0.0,0.0,92,-99.99,,,-99.99,WSDL version 423,2013-09-01 15:21:00,
2013-09-01 10:23:00,77.2,74.8,29.44,South,172,0.0,0.0,92,-99.99,,,-99.99,WSDL version 423,2013-09-01 15:23:00,
2013-09-01 10:24:00,77.3,74.9,29.44,SSE,168,0.0,0.0,92,-99.99,,,-99.99,WSDL version 423,2013-09-01 15:24:00,
2013-09-01 10:25:00,77.4,75.0,29.44,South,175,0.0,0.0,92,-99.99,,,-99.99,WSDL version 423,2013-09-01 15:25:00,
2013-09-01 10:29:00,77.8,75.0,29.44,South,185,0.0,0.0,91,-99.99,,,-99.99,WSDL version 423,2013-09-01 15:29:00,
2013-09-01 10:30:00,77.9,75.1,29.47,SSW,208,0.0,0.0,91,-99.99,,,-99.99,WSDL version 423,2013-09-01 15:30:00,
2013-09-01 10:33:00,78.1,75.2,29.47,SW,218,0.0,0.0,90,-99.99,,,-99.99,WSDL version 423,2013-09-01 15:33:00,
2013-09-01 10:34:00,78.2,75.1,29.47,SSW,212,0.0,0.0,89,-99.99,,,-99.99,WSDL version 423,2013-09-01 15:34:00,
2013-09-01 10:38:00,78.1,74.2,29.47,SSW,212,0.0,0.0,87,-99.99,,,-99.99,WSDL version 423,2013-09-01 15:38:00,
2013-09-01 10:39:00,78.1,74.0,29.47,SW,222,0.0,0.0,87,-99.99,,,-99.99,WSDL version 423,2013-09-01 15:39:00,
2013-09-01 10:40:00,78.1,73.8,29.47,SSW,194,0.0,0.0,86,-99.99,,,-99.99,WSDL version 423,2013-09-01 15:40:00,
2013-09-01 10:41:00,78.1,73.6,29.47,South,177,0.0,0.0,86,-99.99,,,-99.99,WSDL version 423,2013-09-01 15:41:00,
2013-09-01 10:43:00,78.1,73.3,29.47,SSW,199,0.0,0.0,84,-99.99,,,-99.99,WSDL version 423,2013-09-01 15:43:00,
2013-09-01 10:47:00,78.1,72.8,29.47,SW,217,0.0,0.0,83,-99.99,,,-99.99,WSDL version 423,2013-09-01 15:47:00,
2013-09-01 10:48:00,78.1,72.8,29.47,South,180,0.0,0.0,84,-99.99,,,-99.99,WSDL version 423,2013-09-01 15:48:00,
2013-09-01 10:49:00,78.2,72.8,29.47,SSE,165,0.0,0.0,83,-99.99,,,-99.99,WSDL version 423,2013-09-01 15:49:00,
2013-09-01 10:50:00,78.2,72.8,29.47,SSW,205,0.0,0.0,83,-99.99,,,-99.99,WSDL version 423,2013-09-01 15:50:00,
2013-09-01 10:52:00,78.3,72.9,29.47,SSW,206,0.0,0.0,82,-99.99,,,-99.99,WSDL version 423,2013-09-01 15:52:00,
2013-09-01 10:54:00,78.4,72.7,29.47,SSW,208,0.0,0.0,82,-99.99,,,-99.99,WSDL version 423,2013-09-01 15:54:00,
2013-09-01 10:56:00,78.5,72.4,29.47,South,191,0.0,0.0,81,-99.99,,,-99.99,WSDL version 423,2013-09-01 15:56:00,
2013-09-01 10:58:00,78.5,72.1,29.47,South,170,0.0,0.0,80,-99.99,,,-99.99,WSDL version 423,2013-09-01 15:58:00,
2013-09-01 11:00:00,78.4,71.9,29.47,South,175,0.0,0.0,81,-99.99,,,-99.99,WSDL version 423,2013-09-01 16:00:00,
2013-09-01 11:01:00,78.3,71.8,29.47,South,169,0.0,0.0,81,-99.99,,,-99.99,WSDL version 423,2013-09-01 16:01:00,
2013-09-01 11:03:00,78.3,71.8,29.47,South,180,0.0,0.0,81,-99.99,,,-99.99,WSDL version 423,2013-09-01 16:03:00,
2013-09-01 11:05:00,78.2,71.8,29.47,SW,219,0.0,0.0,81,-99.99,,,-99.99,WSDL version 423,2013-09-01 16:05:00,
2013-09-01 11:08:00,78.4,71.8,29.47,South,186,0.0,0.0,80,-99.99,,,-99.99,WSDL version 423,2013-09-01 16:08:00,
2013-09-01 11:09:00,78.5,71.9,29.47,South,177,0.0,0.0,80,-99.99,,,-99.99,WSDL version 423,2013-09-01 16:09:00,
2013-09-01 11:11:00,78.8,72.1,29.47,South,190,0.0,0.0,80,-99.99,,,-99.99,WSDL version 423,2013-09-01 16:11:00,
2013-09-01 11:12:00,78.9,72.2,29.47,SSW,211,0.0,0.0,80,-99.99,,,-99.99,WSDL version 423,2013-09-01 16:12:00,
2013-09-01 11:13:00,79.0,72.3,29.47,SSE,168,0.0,0.0,80,-99.99,,,-99.99,WSDL version 423,2013-09-01 16:13:00,
2013-09-01 11:16:00,79.3,72.7,29.47,SSE,160,0.0,0.0,81,-99.99,,,-99.99,WSDL version 423,2013-09-01 16:16:00,
2013-09-01 11:17:00,79.3,72.8,29.47,SSE,165,0.0,0.0,80,-99.99,,,-99.99,WSDL version 423,2013-09-01 16:17:00,
2013-09-01 11:18:00,79.4,72.7,29.47,SSW,213,0.0,0.0,79,-99.99,,,-99.99,WSDL version 423,2013-09-01 16:18:00,
2013-09-01 11:21:00,79.6,72.4,29.47,South,186,0.0,0.0,78,-99.99,,,-99.99,WSDL version 423,2013-09-01 16:21:00,
2013-09-01 11:22:00,79.8,72.5,29.47,South,186,0.0,0.0,78,-99.99,,,-99.99,WSDL version 423,2013-09-01 16:22:00,
2013-09-01 11:25:00,80.2,72.5,29.47,South,190,0.0,0.0,77,-99.99,,,-99.99,WSDL version 423,2013-09-01 16:25:00,
2013-09-01 11:26:00,80.3,72.4,29.47,SSE,166,0.0,0.0,77,-99.99,,,-99.99,WSDL version 423,2013-09-01 16:26:00,
2013-09-01 11:28:00,80.4,72.3,29.47,SE,133,0.0,0.0,75,-99.99,,,-99.99,WSDL version 423,2013-09-01 16:28:00,
2013-09-01 11:29:00,80.5,72.2,29.47,ESE,107,0.0,0.0,75,-99.99,,,-99.99,WSDL version 423,2013-09-01 16:29:00,
2013-09-01 11:30:00,80.6,72.2,29.47,South,188,0.0,0.0,75,-99.99,,,-99.99,WSDL version 423,2013-09-01 16:30:00,
2013-09-01 11:31:00,80.7,72.2,29.47,SSW,198,0.0,0.0,75,-99.99,,,-99.99,WSDL version 423,2013-09-01 16:31:00,
2013-09-01 11:35:00,81.6,72.7,29.47,SSE,160,0.0,0.0,73,-99.99,,,-99.99,WSDL version 423,2013-09-01 16:35:00,
2013-09-01 11:36:00,81.8,72.6,29.47,SE,138,0.0,0.0,72,-99.99,,,-99.99,WSDL version 423,2013-09-01 16:36:00,
2013-09-01 11:39:00,82.3,71.8,29.47,South,188,0.0,0.0,69,-99.99,,,-99.99,WSDL version 423,2013-09-01 16:39:00,
2013-09-01 11:40:00,82.5,71.6,29.47,SSE,158,0.0,0.0,69,-99.99,,,-99.99,WSDL version 423,2013-09-01 16:40:00,
2013-09-01 11:41:00,82.8,71.7,29.47,North,355,0.0,0.0,70,-99.99,,,-99.99,WSDL version 423,2013-09-01 16:41:00,
2013-09-01 11:42:00,83.1,72.1,29.47,WNW,285,0.0,0.0,70,-99.99,,,-99.99,WSDL version 423,2013-09-01 16:42:00,
2013-09-01 11:44:00,83.8,72.6,29.47,WSW,241,0.0,0.0,69,-99.99,,,-99.99,WSDL version 423,2013-09-01 16:44:00,
2013-09-01 11:46:00,84.4,72.8,29.47,South,188,0.0,0.0,66,-99.99,,,-99.99,WSDL version 423,2013-09-01 16:46:00,
2013-09-01 11:47:00,84.5,72.6,29.47,SSW,209,0.0,0.0,66,-99.99,,,-99.99,WSDL version 423,2013-09-01 16:47:00,
2013-09-01 11:49:00,84.9,72.1,29.47,SSE,158,0.0,0.0,64,-99.99,,,-99.99,WSDL version 423,2013-09-01 16:49:00,
2013-09-01 11:50:00,85.0,72.0,29.47,South,183,0.0,0.0,64,-99.99,,,-99.99,WSDL version 423,2013-09-01 16:50:00,
2013-09-01 11:54:00,86.2,71.9,29.47,SSW,197,0.0,0.0,61,-99.99,,,-99.99,WSDL version 423,2013-09-01 16:54:00,
2013-09-01 11:55:00,86.4,71.9,29.47,South,188,0.0,0.0,61,-99.99,,,-99.99,WSDL version 423,2013-09-01 16:55:00,
2013-09-01 11:58:00,87.2,70.9,29.47,SSW,193,0.0,0.0,54,-99.99,,,-99.99,WSDL version 423,2013-09-01 16:58:00,
2013-09-01 12:00:00,87.6,70.4,29.47,SE,145,0.0,0.0,55,-99.99,,,-99.99,WSDL version 423,2013-09-01 17:00:00,
2013-09-01 12:01:00,87.8,70.2,29.47,West,259,0.0,0.0,54,-99.99,,,-99.99,WSDL version 423,2013-09-01 17:01:00,
2013-09-01 12:05:00,88.6,69.7,29.47,SSW,205,0.0,0.0,52,-99.99,,,-99.99,WSDL version 423,2013-09-01 17:05:00,
2013-09-01 12:06:00,88.7,69.5,29.47,SSW,213,0.0,0.0,52,-99.99,,,-99.99,WSDL version 423,2013-09-01 17:06:00,
2013-09-01 12:08:00,88.9,69.2,29.47,SSE,164,0.0,0.0,52,-99.99,,,-99.99,WSDL version 423,2013-09-01 17:08:00,
2013-09-01 12:13:00,89.3,68.3,29.47,South,175,0.0,0.0,51,-99.99,,,-99.99,WSDL version 423,2013-09-01 17:13:00,
2013-09-01 12:15:00,89.6,68.7,29.47,South,180,0.0,0.0,50,-99.99,,,-99.99,WSDL version 423,2013-09-01 17:15:00,
2013-09-01 12:16:00,89.7,68.6,29.47,South,175,0.0,0.0,49,-99.99,,,-99.99,WSDL version 423,2013-09-01 17:16:00,
2013-09-01 12:18:00,89.8,68.2,29.47,SSE,160,0.0,0.0,48,-99.99,,,-99.99,WSDL version 423,2013-09-01 17:18:00,
2013-09-01 12:20:00,89.9,67.7,29.47,West,267,0.0,0.0,48,-99.99,,,-99.99,WSDL version 423,2013-09-01 17:20:00,
2013-09-01 12:21:00,90.0,67.5,29.47,SW,236,0.0,0.0,46,-99.99,,,-99.99,WSDL version 423,2013-09-01 17:21:00,
2013-09-01 12:25:00,90.5,67.2,29.47,SSW,200,0.0,0.0,46,-99.99,,,-99.99,WSDL version 423,2013-09-01 17:25:00,
2013-09-01 12:26:00,90.5,67.4,29.47,SSW,208,0.0,0.0,47,-99.99,,,-99.99,WSDL version 423,2013-09-01 17:26:00,
2013-09-01 12:27:00,90.3,66.9,29.47,SSW,203,0.0,0.0,45,-99.99,,,-99.99,WSDL version 423,2013-09-01 17:27:00,
2013-09-01 12:28:00,90.0,66.5,29.47,SW,220,0.0,0.0,46,-99.99,,,-99.99,WSDL version 423,2013-09-01 17:28:00,
2013-09-01 12:30:00,89.8,66.3,29.44,WSW,238,0.0,0.0,46,-99.99,,,-99.99,WSDL version 423,2013-09-01 17:30:00,
2013-09-01 12:31:00,89.7,66.2,29.44,WNW,285,0.0,0.0,47,-99.99,,,-99.99,WSDL version 423,2013-09-01 17:31:00,
2013-09-01 12:33:00,89.7,66.5,29.44,SSW,203,0.0,0.0,47,-99.99,,,-99.99,WSDL version 423,2013-09-01 17:33:00,
2013-09-01 12:35:00,89.6,66.3,29.44,SSW,205,0.0,0.0,46,-99.99,,,-99.99,WSDL version 423,2013-09-01 17:35:00,
2013-09-01 12:38:00,89.4,65.7,29.44,West,276,0.0,0.0,46,-99.99,,,-99.99,WSDL version 423,2013-09-01 17:38:00,
2013-09-01 12:39:00,89.3,65.8,29.44,WSW,254,0.0,0.0,47,-99.99,,,-99.99,WSDL version 423,2013-09-01 17:39:00,
2013-09-01 12:40:00,89.2,65.7,29.44,WSW,253,0.0,0.0,45,-99.99,,,-99.99,WSDL version 423,2013-09-01 17:40:00,
2013-09-01 12:41:00,89.1,65.6,29.44,SW,215,0.0,0.0,46,-99.99,,,-99.99,WSDL version 423,2013-09-01 17:41:00,
2013-09-01 12:43:00,89.0,65.8,29.44,WSW,253,0.0,0.0,47,-99.99,,,-99.99,WSDL version 423,2013-09-01 17:43:00,
2013-09-01 12:44:00,89.0,65.6,29.44,WSW,243,0.0,0.0,46,-99.99,,,-99.99,WSDL version 423,2013-09-01 17:44:00,
2013-09-01 12:45:00,88.9,65.5,29.44,WSW,243,0.0,0.0,44,-99.99,,,-99.99,WSDL version 423,2013-09-01 17:45:00,
2013-09-01 12:46:00,88.9,65.3,29.44,SW,233,0.0,0.0,44,-99.99,,,-99.99,WSDL version 423,2013-09-01 17:46:00,
2013-09-01 12:49:00,88.8,64.4,29.44,WNW,289,0.0,0.0,45,-99.99,,,-99.99,WSDL version 423,2013-09-01 17:49:00,
2013-09-01 12:50:00,88.7,64.5,29.44,East,90,0.0,0.0,45,-99.99,,,-99.99,WSDL version 423,2013-09-01 17:50:00,
2013-09-01 12:52:00,88.6,64.5,29.44,SSW,211,0.0,0.0,45,-99.99,,,-99.99,WSDL version 423,2013-09-01 17:52:00,
2013-09-01 12:55:00,88.8,65.0,29.44,West,259,0.0,0.0,45,-99.99,,,-99.99,WSDL version 423,2013-09-01 17:55:00,
2013-09-01 12:56:00,88.9,65.1,29.44,WNW,288,0.0,0.0,45,-99.99,,,-99.99,WSDL version 423,2013-09-01 17:56:00,
2013-09-01 12:57:00,89.2,65.3,29.44,SW,233,0.0,0.0,45,-99.99,,,-99.99,WSDL version 423,2013-09-01 17:57:00,
2013-09-01 12:58:00,89.3,65.3,29.44,SSW,208,0.0,0.0,45,-99.99,,,-99.99,WSDL version 423,2013-09-01 17:58:00,
2013-09-01 13:00:00,89.7,65.6,29.44,SW,228,0.0,0.0,45,-99.99,,,-99.99,WSDL version 423,2013-09-01 18:00:00,
2013-09-01 13:02:00,90.2,66.1,29.44,SSW,208,0.0,0.0,45,-99.99,,,-99.99,WSDL version 423,2013-09-01 18:02:00,
2013-09-01 13:04:00,90.6,66.1,29.44,SW,214,0.0,0.0,43,-99.99,,,-99.99,WSDL version 423,2013-09-01 18:04:00,
2013-09-01 13:05:00,90.8,66.0,29.44,SW,228,0.0,0.0,44,-99.99,,,-99.99,WSDL version 423,2013-09-01 18:05:00,
2013-09-01 13:06:00,90.9,65.9,29.44,SW,217,0.0,0.0,43,-99.99,,,-99.99,WSDL version 423,2013-09-01 18:06:00,
2013-09-01 13:09:00,91.1,65.8,29.44,SW,233,0.0,0.0,44,-99.99,,,-99.99,WSDL version 423,2013-09-01 18:09:00,
2013-09-01 13:14:00,91.5,66.2,29.44,South,180,0.0,0.0,44,-99.99,,,-99.99,WSDL version 423,2013-09-01 18:14:00,
2013-09-01 13:15:00,91.6,66.2,29.44,South,188,0.0,0.0,43,-99.99,,,-99.99,WSDL version 423,2013-09-01 18:15:00,
2013-09-01 13:16:00,91.5,65.9,29.44,SSW,198,0.0,0.0,41,-99.99,,,-99.99,WSDL version 423,2013-09-01 18:16:00,
2013-09-01 13:19:00,91.3,64.7,29.44,SSW,198,0.0,0.0,41,-99.99,,,-99.99,WSDL version 423,2013-09-01 18:19:00,
2013-09-01 13:20:00,91.2,64.1,29.44,SSW,210,0.0,0.0,41,-99.99,,,-99.99,WSDL version 423,2013-09-01 18:20:00,
2013-09-01 13:22:00,91.1,64.1,29.44,WSW,239,0.0,0.0,41,-99.99,,,-99.99,WSDL version 423,2013-09-01 18:22:00,
2013-09-01 13:26:00,90.8,63.7,29.44,SSW,203,0.0,0.0,41,-99.99,,,-99.99,WSDL version 423,2013-09-01 18:26:00,
2013-09-01 13:30:00,90.3,63.1,29.44,South,178,0.0,0.0,41,-99.99,,,-99.99,WSDL version 423,2013-09-01 18:30:00,
2013-09-01 13:31:00,90.2,63.0,29.44,South,173,0.0,0.0,41,-99.99,,,-99.99,WSDL version 423,2013-09-01 18:31:00,
2013-09-01 13:33:00,89.9,62.9,29.44,West,265,0.0,0.0,41,-99.99,,,-99.99,WSDL version 423,2013-09-01 18:33:00,
2013-09-01 13:36:00,90.0,63.8,29.44,SW,225,0.0,0.0,42,-99.99,,,-99.99,WSDL version 423,2013-09-01 18:36:00,
2013-09-01 13:37:00,90.0,64.1,29.44,SW,233,0.0,0.0,43,-99.99,,,-99.99,WSDL version 423,2013-09-01 18:37:00,
2013-09-01 13:38:00,90.0,64.3,29.44,WSW,248,0.0,0.0,43,-99.99,,,-99.99,WSDL version 423,2013-09-01 18:38:00,
2013-09-01 13:40:00,90.0,64.6,29.44,South,191,0.0,0.0,43,-99.99,,,-99.99,WSDL version 423,2013-09-01 18:40:00,
2013-09-01 13:43:00,90.0,64.8,29.44,SW,228,0.0,0.0,43,-99.99,,,-99.99,WSDL version 423,2013-09-01 18:43:00,
2013-09-01 13:44:00,90.0,64.9,29.44,WNW,293,0.0,0.0,44,-99.99,,,-99.99,WSDL version 423,2013-09-01 18:44:00,
2013-09-01 13:45:00,89.9,64.9,29.44,WSW,253,0.0,0.0,44,-99.99,,,-99.99,WSDL version 423,2013-09-01 18:45:00,
2013-09-01 13:46:00,89.8,64.8,29.44,WSW,257,0.0,0.0,44,-99.99,,,-99.99,WSDL version 423,2013-09-01 18:46:00,
2013-09-01 13:47:00,89.7,64.7,29.44,South,169,0.0,0.0,43,-99.99,,,-99.99,WSDL version 423,2013-09-01 18:47:00,
2013-09-01 13:49:00,89.2,64.1,29.44,South,190,0.0,0.0,43,-99.99,,,-99.99,WSDL version 423,2013-09-01 18:49:00,
2013-09-01 13:50:00,88.9,63.8,29.44,SW,228,0.0,0.0,44,-99.99,,,-99.99,WSDL version 423,2013-09-01 18:50:00,
2013-09-01 13:51:00,88.7,63.6,29.44,SSW,213,0.0,0.0,44,-99.99,,,-99.99,WSDL version 423,2013-09-01 18:51:00,
2013-09-01 13:54:00,88.2,63.5,29.44,South,188,0.0,0.0,44,-99.99,,,-99.99,WSDL version 423,2013-09-01 18:54:00,
2013-09-01 13:55:00,88.0,63.5,29.44,West,268,0.0,0.0,44,-99.99,,,-99.99,WSDL version 423,2013-09-01 18:55:00,
2013-09-01 13:59:00,87.7,64.0,29.44,SW,220,0.0,0.0,46,-99.99,,,-99.99,WSDL version 423,2013-09-01 18:59:00,
2013-09-01 14:02:00,87.7,64.2,29.44,SSE,168,0.0,0.0,46,-99.99,,,-99.99,WSDL version 423,2013-09-01 19:02:00,
2013-09-01 14:04:00,87.7,64.5,29.44,West,262,0.0,0.0,47,-99.99,,,-99.99,WSDL version 423,2013-09-01 19:04:00,
2013-09-01 14:07:00,87.9,65.0,29.44,SSW,211,0.0,0.0,47,-99.99,,,-99.99,WSDL version 423,2013-09-01 19:07:00,
2013-09-01 14:09:00,88.1,65.1,29.44,West,278,0.0,0.0,45,-99.99,,,-99.99,WSDL version 423,2013-09-01 19:09:00,
2013-09-01 14:10:00,88.4,65.0,29.44,SE,143,0.0,0.0,45,-99.99,,,-99.99,WSDL version 423,2013-09-01 19:10:00,
2013-09-01 14:11:00,88.6,65.1,29.44,SW,231,0.0,0.0,46,-99.99,,,-99.99,WSDL version 423,2013-09-01 19:11:00,
2013-09-01 14:12:00,88.7,65.1,29.44,WSW,253,0.0,0.0,46,-99.99,,,-99.99,WSDL version 423,2013-09-01 19:12:00,
2013-09-01 14:16:00,89.1,65.4,29.44,SW,231,0.0,0.0,45,-99.99,,,-99.99,WSDL version 423,2013-09-01 19:16:00,
2013-09-01 14:17:00,89.1,65.3,29.44,NW,309,0.0,0.0,45,-99.99,,,-99.99,WSDL version 423,2013-09-01 19:17:00,
2013-09-01 14:19:00,89.0,65.0,29.44,SSW,213,0.0,0.0,45,-99.99,,,-99.99,WSDL version 423,2013-09-01 19:19:00,
2013-09-01 14:23:00,88.9,65.0,29.44,SSE,149,0.0,0.0,46,-99.99,,,-99.99,WSDL version 423,2013-09-01 19:23:00,
2013-09-01 14:24:00,88.9,65.1,29.44,SW,231,0.0,0.0,46,-99.99,,,-99.99,WSDL version 423,2013-09-01 19:24:00,
2013-09-01 14:25:00,89.0,65.2,29.44,South,183,0.0,0.0,46,-99.99,,,-99.99,WSDL version 423,2013-09-01 19:25:00,
2013-09-01 14:28:00,89.4,65.9,29.44,WNW,290,0.0,0.0,46,-99.99,,,-99.99,WSDL version 423,2013-09-01 19:28:00,
2013-09-01 14:29:00,89.6,65.9,29.44,West,280,0.0,0.0,45,-99.99,,,-99.99,WSDL version 423,2013-09-01 19:29:00,
2013-09-01 14:30:00,89.6,65.8,29.44,West,268,0.0,0.0,45,-99.99,,,-99.99,WSDL version 423,2013-09-01 19:30:00,
2013-09-01 14:31:00,89.6,65.8,29.44,SW,231,0.0,0.0,45,-99.99,,,-99.99,WSDL version 423,2013-09-01 19:31:00,
2013-09-01 14:33:00,89.7,65.6,29.44,West,270,0.0,0.0,45,-99.99,,,-99.99,WSDL version 423,2013-09-01 19:33:00,
2013-09-01 14:34:00,89.7,65.6,29.44,West,260,0.0,0.0,45,-99.99,,,-99.99,WSDL version 423,2013-09-01 19:34:00,
2013-09-01 14:35:00,89.8,65.6,29.44,West,264,0.0,0.0,44,-99.99,,,-99.99,WSDL version 423,2013-09-01 19:35:00,
2013-09-01 14:36:00,89.9,65.5,29.44,WSW,243,0.0,0.0,44,-99.99,,,-99.99,WSDL version 423,2013-09-01 19:36:00,
2013-09-01 14:38:00,89.9,65.3,29.44,South,188,0.0,0.0,44,-99.99,,,-99.99,WSDL version 423,2013-09-01 19:38:00,
2013-09-01 14:39:00,89.9,65.3,29.44,SE,138,0.0,0.0,45,-99.99,,,-99.99,WSDL version 423,2013-09-01 19:39:00,
2013-09-01 14:41:00,89.7,65.1,29.44,SSE,165,0.0,0.0,44,-99.99,,,-99.99,WSDL version 423,2013-09-01 19:41:00,
2013-09-01 14:44:00,89.5,65.1,29.44,South,175,0.0,0.0,45,-99.99,,,-99.99,WSDL version 423,2013-09-01 19:44:00,
2013-09-01 14:47:00,89.4,65.3,29.41,SW,233,0.0,0.0,45,-99.99,,,-99.99,WSDL version 423,2013-09-01 19:47:00,
2013-09-01 14:48:00,89.5,65.4,29.41,South,178,0.0,0.0,45,-99.99,,,-99.99,WSDL version 423,2013-09-01 19:48:00,
2013-09-01 14:49:00,89.5,65.5,29.41,South,188,0.0,0.0,45,-99.99,,,-99.99,WSDL version 423,2013-09-01 19:49:00,
2013-09-01 14:52:00,89.7,65.6,29.41,SE,124,0.0,0.0,45,-99.99,,,-99.99,WSDL version 423,2013-09-01 19:52:00,
2013-09-01 14:53:00,89.8,65.7,29.41,SSE,163,0.0,0.0,45,-99.99,,,-99.99,WSDL version 423,2013-09-01 19:53:00,
2013-09-01 14:56:00,90.0,66.1,29.41,ESE,110,0.0,0.0,45,-99.99,,,-99.99,WSDL version 423,2013-09-01 19:56:00,
2013-09-01 14:57:00,90.0,66.1,29.41,NE,35,0.0,0.0,45,-99.99,,,-99.99,WSDL version 423,2013-09-01 19:57:00,
2013-09-01 14:59:00,90.0,65.9,29.41,South,183,0.0,0.0,44,-99.99,,,-99.99,WSDL version 423,2013-09-01 19:59:00,
2013-09-01 15:00:00,90.1,65.8,29.41,West,270,0.0,0.0,44,-99.99,,,-99.99,WSDL version 423,2013-09-01 20:00:00,
2013-09-01 15:01:00,90.2,65.8,29.41,SW,215,0.0,0.0,44,-99.99,,,-99.99,WSDL version 423,2013-09-01 20:01:00,
2013-09-01 15:04:00,90.5,65.9,29.41,WSW,243,0.0,0.0,44,-99.99,,,-99.99,WSDL version 423,2013-09-01 20:04:00,
2013-09-01 15:07:00,90.4,65.7,29.41,SSE,158,0.0,0.0,44,-99.99,,,-99.99,WSDL version 423,2013-09-01 20:07:00,
2013-09-01 15:08:00,90.4,65.6,29.41,South,173,0.0,0.0,44,-99.99,,,-99.99,WSDL version 423,2013-09-01 20:08:00,
2013-09-01 15:10:00,90.3,65.6,29.41,West,273,0.0,0.0,44,-99.99,,,-99.99,WSDL version 423,2013-09-01 20:10:00,
2013-09-01 15:12:00,90.4,65.7,29.41,South,173,0.0,0.0,44,-99.99,,,-99.99,WSDL version 423,2013-09-01 20:12:00,
2013-09-01 15:13:00,90.4,65.7,29.41,SSW,194,0.0,0.0,44,-99.99,,,-99.99,WSDL version 423,2013-09-01 20:13:00,
2013-09-01 15:15:00,90.5,65.8,29.41,SE,138,0.0,0.0,44,-99.99,,,-99.99,WSDL version 423,2013-09-01 20:15:00,
2013-09-01 15:18:00,90.6,65.9,29.41,South,186,0.0,0.0,44,-99.99,,,-99.99,WSDL version 423,2013-09-01 20:18:00,
2013-09-01 15:19:00,90.6,65.8,29.41,SE,140,0.0,0.0,44,-99.99,,,-99.99,WSDL version 423,2013-09-01 20:19:00,
2013-09-01 15:21:00,90.5,65.7,29.41,SE,143,0.0,0.0,44,-99.99,,,-99.99,WSDL version 423,2013-09-01 20:21:00,
2013-09-01 15:22:00,90.5,65.6,29.41,SSE,158,0.0,0.0,44,-99.99,,,-99.99,WSDL version 423,2013-09-01 20:22:00,
2013-09-01 15:23:00,90.4,65.5,29.41,SSE,160,0.0,0.0,44,-99.99,,,-99.99,WSDL version 423,2013-09-01 20:23:00,
2013-09-01 15:27:00,90.5,66.0,29.41,SW,222,0.0,0.0,45,-99.99,,,-99.99,WSDL version 423,2013-09-01 20:27:00,
2013-09-01 15:30:00,90.8,66.2,29.41,South,180,0.0,0.0,44,-99.99,,,-99.99,WSDL version 423,2013-09-01 20:30:00,
2013-09-01 15:32:00,90.8,66.0,29.41,NE,50,0.0,0.0,44,-99.99,,,-99.99,WSDL version 423,2013-09-01 20:32:00,
2013-09-01 15:35:00,90.7,65.6,29.41,ESE,110,0.0,0.0,43,-99.99,,,-99.99,WSDL version 423,2013-09-01 20:35:00,
2013-09-01 15:36:00,90.7,65.4,29.41,SW,220,0.0,0.0,43,-99.99,,,-99.99,WSDL version 423,2013-09-01 20:36:00,
2013-09-01 15:37:00,90.8,65.3,29.41,SW,236,0.0,0.0,43,-99.99,,,-99.99,WSDL version 423,2013-09-01 20:37:00,
2013-09-01 15:38:00,90.8,65.3,29.41,SW,228,0.0,0.0,43,-99.99,,,-99.99,WSDL version 423,2013-09-01 20:38:00,
2013-09-01 15:40:00,90.9,65.4,29.41,South,172,0.0,0.0,43,-99.99,,,-99.99,WSDL version 423,2013-09-01 20:40:00,
2013-09-01 15:42:00,91.1,65.7,29.41,WSW,245,0.0,0.0,43,-99.99,,,-99.99,WSDL version 423,2013-09-01 20:42:00,
2013-09-01 15:43:00,91.1,65.7,29.41,SW,220,0.0,0.0,43,-99.99,,,-99.99,WSDL version 423,2013-09-01 20:43:00,
2013-09-01 15:44:00,91.1,65.7,29.41,South,185,0.0,0.0,43,-99.99,,,-99.99,WSDL version 423,2013-09-01 20:44:00,
2013-09-01 15:45:00,91.1,65.7,29.41,SSW,203,0.0,0.0,43,-99.99,,,-99.99,WSDL version 423,2013-09-01 20:45:00,
2013-09-01 15:46:00,91.1,65.7,29.41,SSW,195,0.0,0.0,43,-99.99,,,-99.99,WSDL version 423,2013-09-01 20:46:00,
2013-09-01 15:49:00,90.9,65.4,29.41,SW,222,0.0,0.0,43,-99.99,,,-99.99,WSDL version 423,2013-09-01 20:49:00,
2013-09-01 15:51:00,90.9,65.1,29.41,SSW,210,0.0,0.0,42,-99.99,,,-99.99,WSDL version 423,2013-09-01 20:51:00,
2013-09-01 15:52:00,90.9,65.1,29.41,SSW,199,0.0,0.0,42,-99.99,,,-99.99,WSDL version 423,2013-09-01 20:52:00,
2013-09-01 15:53:00,90.9,65.0,29.41,South,169,0.0,0.0,42,-99.99,,,-99.99,WSDL version 423,2013-09-01 20:53:00,
2013-09-01 15:56:00,90.9,64.9,29.41,SSW,194,0.0,0.0,42,-99.99,,,-99.99,WSDL version 423,2013-09-01 20:56:00,
2013-09-01 15:57:00,90.9,65.1,29.41,SW,218,0.0,0.0,43,-99.99,,,-99.99,WSDL version 423,2013-09-01 20:57:00,
2013-09-01 15:58:00,91.0,65.1,29.41,WSW,240,0.0,0.0,42,-99.99,,,-99.99,WSDL version 423,2013-09-01 20:58:00,
2013-09-01 16:01:00,91.4,65.9,29.41,NNE,15,0.0,0.0,43,-99.99,,,-99.99,WSDL version 423,2013-09-01 21:01:00,
2013-09-01 16:02:00,91.5,66.0,29.41,South,172,0.0,0.0,43,-99.99,,,-99.99,WSDL version 423,2013-09-01 21:02:00,
2013-09-01 16:03:00,91.6,66.2,29.41,SW,214,0.0,0.0,43,-99.99,,,-99.99,WSDL version 423,2013-09-01 21:03:00,
2013-09-01 16:04:00,91.7,66.2,29.41,SSW,200,0.0,0.0,43,-99.99,,,-99.99,WSDL version 423,2013-09-01 21:04:00,
2013-09-01 16:07:00,91.6,65.6,29.41,SSW,197,0.0,0.0,42,-99.99,,,-99.99,WSDL version 423,2013-09-01 21:07:00,
2013-09-01 16:08:00,91.6,65.3,29.41,SSW,194,0.0,0.0,41,-99.99,,,-99.99,WSDL version 423,2013-09-01 21:08:00,
2013-09-01 16:09:00,91.5,64.9,29.41,SSW,200,0.0,0.0,41,-99.99,,,-99.99,WSDL version 423,2013-09-01 21:09:00,
2013-09-01 16:13:00,91.3,64.6,29.41,ESE,107,0.0,0.0,42,-99.99,,,-99.99,WSDL version 423,2013-09-01 21:13:00,
2013-09-01 16:14:00,91.1,64.8,29.41,SE,138,0.0,0.0,42,-99.99,,,-99.99,WSDL version 423,2013-09-01 21:14:00,
2013-09-01 16:15:00,91.1,64.8,29.41,SE,135,0.0,0.0,42,-99.99,,,-99.99,WSDL version 423,2013-09-01 21:15:00,
2013-09-01 16:16:00,91.0,64.9,29.41,SE,138,0.0,0.0,42,-99.99,,,-99.99,WSDL version 423,2013-09-01 21:16:00,
2013-09-01 16:19:00,90.8,64.3,29.41,SSW,193,0.0,0.0,41,-99.99,,,-99.99,WSDL version 423,2013-09-01 21:19:00,
2013-09-01 16:20:00,90.8,64.2,29.41,SW,219,0.0,0.0,41,-99.99,,,-99.99,WSDL version 423,2013-09-01 21:20:00,
2013-09-01 16:22:00,90.8,64.0,29.41,SSW,208,0.0,0.0,41,-99.99,,,-99.99,WSDL version 423,2013-09-01 21:22:00,
2013-09-01 16:23:00,90.8,64.1,29.41,South,186,0.0,0.0,41,-99.99,,,-99.99,WSDL version 423,2013-09-01 21:23:00,
2013-09-01 16:26:00,91.1,64.6,29.41,SSW,193,0.0,0.0,42,-99.99,,,-99.99,WSDL version 423,2013-09-01 21:26:00,
2013-09-01 16:28:00,91.2,64.8,29.41,SSW,203,0.0,0.0,42,-99.99,,,-99.99,WSDL version 423,2013-09-01 21:28:00,
2013-09-01 16:29:00,91.1,64.8,29.41,SW,228,0.0,0.0,42,-99.99,,,-99.99,WSDL version 423,2013-09-01 21:29:00,
2013-09-01 16:30:00,91.0,64.9,29.41,SW,217,0.0,0.0,42,-99.99,,,-99.99,WSDL version 423,2013-09-01 21:30:00,
2013-09-01 16:31:00,90.9,64.9,29.41,SW,214,0.0,0.0,43,-99.99,,,-99.99,WSDL version 423,2013-09-01 21:31:00,
2013-09-01 16:33:00,90.7,65.0,29.41,South,188,0.0,0.0,43,-99.99,,,-99.99,WSDL version 423,2013-09-01 21:33:00,
2013-09-01 16:35:00,90.3,65.0,29.41,SSW,198,0.0,0.0,43,-99.99,,,-99.99,WSDL version 423,2013-09-01 21:35:00,
2013-09-01 16:36:00,90.1,64.8,29.41,WSW,238,0.0,0.0,43,-99.99,,,-99.99,WSDL version 423,2013-09-01 21:36:00,
2013-09-01 16:38:00,89.7,64.5,29.41,SSW,211,0.0,0.0,43,-99.99,,,-99.99,WSDL version 423,2013-09-01 21:38:00,
2013-09-01 16:40:00,89.4,64.2,29.41,SW,215,0.0,0.0,43,-99.99,,,-99.99,WSDL version 423,2013-09-01 21:40:00,
2013-09-01 16:41:00,89.3,64.1,29.41,SSW,197,0.0,0.0,43,-99.99,,,-99.99,WSDL version 423,2013-09-01 21:41:00,
2013-09-01 16:42:00,89.1,63.9,29.41,South,180,0.0,0.0,43,-99.99,,,-99.99,WSDL version 423,2013-09-01 21:42:00,
2013-09-01 16:45:00,88.8,64.0,29.41,NNW,338,0.0,0.0,44,-99.99,,,-99.99,WSDL version 423,2013-09-01 21:45:00,
2013-09-01 16:46:00,88.7,64.1,29.41,SSE,158,0.0,0.0,44,-99.99,,,-99.99,WSDL version 423,2013-09-01 21:46:00,
2013-09-01 16:47:00,88.7,64.1,29.41,NW,325,0.0,0.0,44,-99.99,,,-99.99,WSDL version 423,2013-09-01 21:47:00,
2013-09-01 16:48:00,88.7,64.1,29.41,SSE,166,0.0,0.0,44,-99.99,,,-99.99,WSDL version 423,2013-09-01 21:48:00,
2013-09-01 16:49:00,88.6,64.1,29.41,SW,230,0.0,0.0,44,-99.99,,,-99.99,WSDL version 423,2013-09-01 21:49:00,
2013-09-01 16:52:00,88.4,64.3,29.41,NNW,328,0.0,0.0,46,-99.99,,,-99.99,WSDL version 423,2013-09-01 21:52:00,
2013-09-01 16:54:00,88.1,64.4,29.41,SSE,165,0.0,0.0,46,-99.99,,,-99.99,WSDL version 423,2013-09-01 21:54:00,
2013-09-01 16:56:00,87.8,64.4,29.41,SSW,203,0.0,0.0,46,-99.99,,,-99.99,WSDL version 423,2013-09-01 21:56:00,
2013-09-01 17:00:00,87.3,64.4,29.41,SSW,203,0.0,0.0,47,-99.99,,,-99.99,WSDL version 423,2013-09-01 22:00:00,
2013-09-01 17:01:00,87.2,64.5,29.41,SSW,203,0.0,0.0,48,-99.99,,,-99.99,WSDL version 423,2013-09-01 22:01:00,
2013-09-01 17:02:00,87.1,64.6,29.41,South,177,0.0,0.0,48,-99.99,,,-99.99,WSDL version 423,2013-09-01 22:02:00,
2013-09-01 17:04:00,86.9,64.8,29.41,SSW,200,0.0,0.0,49,-99.99,,,-99.99,WSDL version 423,2013-09-01 22:04:00,
2013-09-01 17:06:00,86.7,64.9,29.41,SSW,200,0.0,0.0,49,-99.99,,,-99.99,WSDL version 423,2013-09-01 22:06:00,
2013-09-01 17:08:00,86.5,64.9,29.41,South,186,0.0,0.0,49,-99.99,,,-99.99,WSDL version 423,2013-09-01 22:08:00,
2013-09-01 17:09:00,86.4,64.9,29.41,SSW,205,0.0,0.0,50,-99.99,,,-99.99,WSDL version 423,2013-09-01 22:09:00,
2013-09-01 17:13:00,86.2,65.3,29.41,North,357,0.0,0.0,50,-99.99,,,-99.99,WSDL version 423,2013-09-01 22:13:00,
2013-09-01 17:14:00,86.1,65.3,29.41,East,96,0.0,0.0,51,-99.99,,,-99.99,WSDL version 423,2013-09-01 22:14:00,
2013-09-01 17:17:00,85.9,65.6,29.41,South,190,0.0,0.0,52,-99.99,,,-99.99,WSDL version 423,2013-09-01 22:17:00,
2013-09-01 17:18:00,85.9,65.8,29.41,South,183,0.0,0.0,52,-99.99,,,-99.99,WSDL version 423,2013-09-01 22:18:00,
2013-09-01 17:21:00,85.7,66.0,29.41,SW,217,0.0,0.0,52,-99.99,,,-99.99,WSDL version 423,2013-09-01 22:21:00,
2013-09-01 17:22:00,85.7,66.1,29.41,South,188,0.0,0.0,52,-99.99,,,-99.99,WSDL version 423,2013-09-01 22:22:00,
2013-09-01 17:24:00,85.7,66.4,29.41,SE,145,0.0,0.0,53,-99.99,,,-99.99,WSDL version 423,2013-09-01 22:24:00,
2013-09-01 17:27:00,85.7,66.5,29.41,SSW,197,0.0,0.0,53,-99.99,,,-99.99,WSDL version 423,2013-09-01 22:27:00,
2013-09-01 17:29:00,85.7,66.6,29.41,SSW,213,0.0,0.0,53,-99.99,,,-99.99,WSDL version 423,2013-09-01 22:29:00,
2013-09-01 17:30:00,85.7,66.7,29.41,SW,214,0.0,0.0,53,-99.99,,,-99.99,WSDL version 423,2013-09-01 22:30:00,
2013-09-01 17:31:00,85.7,66.8,29.41,South,180,0.0,0.0,53,-99.99,,,-99.99,WSDL version 423,2013-09-01 22:31:00,
2013-09-01 17:34:00,85.7,66.8,29.41,South,188,0.0,0.0,54,-99.99,,,-99.99,WSDL version 423,2013-09-01 22:34:00,
2013-09-01 17:35:00,85.7,66.9,29.41,SSW,203,0.0,0.0,54,-99.99,,,-99.99,WSDL version 423,2013-09-01 22:35:00,
2013-09-01 17:36:00,85.7,67.1,29.41,North,8,0.0,0.0,54,-99.99,,,-99.99,WSDL version 423,2013-09-01 22:36:00,
2013-09-01 17:37:00,85.7,67.2,29.41,South,183,0.0,0.0,54,-99.99,,,-99.99,WSDL version 423,2013-09-01 22:37:00,
2013-09-01 17:41:00,85.9,67.5,29.41,SE,135,0.0,0.0,54,-99.99,,,-99.99,WSDL version 423,2013-09-01 22:41:00,
2013-09-01 17:43:00,85.9,67.7,29.41,South,188,0.0,0.0,55,-99.99,,,-99.99,WSDL version 423,2013-09-01 22:43:00,
2013-09-01 17:44:00,85.9,67.7,29.41,South,183,0.0,0.0,55,-99.99,,,-99.99,WSDL version 423,2013-09-01 22:44:00,
2013-09-01 17:45:00,86.0,67.8,29.38,South,185,0.0,0.0,55,-99.99,,,-99.99,WSDL version 423,2013-09-01 22:45:00,
2013-09-01 17:48:00,86.1,67.8,29.38,SE,146,0.0,0.0,54,-99.99,,,-99.99,WSDL version 423,2013-09-01 22:48:00,
2013-09-01 17:49:00,86.1,67.8,29.38,SE,135,0.0,0.0,54,-99.99,,,-99.99,WSDL version 423,2013-09-01 22:49:00,
2013-09-01 17:50:00,86.3,67.8,29.38,South,183,0.0,0.0,54,-99.99,,,-99.99,WSDL version 423,2013-09-01 22:50:00,
2013-09-01 17:53:00,86.3,67.9,29.38,SSE,158,0.0,0.0,54,-99.99,,,-99.99,WSDL version 423,2013-09-01 22:53:00,
2013-09-01 17:54:00,86.3,67.9,29.38,SSE,166,0.0,0.0,54,-99.99,,,-99.99,WSDL version 423,2013-09-01 22:54:00,
2013-09-01 17:56:00,86.3,67.9,29.38,South,170,0.0,0.0,54,-99.99,,,-99.99,WSDL version 423,2013-09-01 22:56:00,
2013-09-01 17:58:00,86.3,67.9,29.38,South,174,0.0,0.0,54,-99.99,,,-99.99,WSDL version 423,2013-09-01 22:58:00,
2013-09-01 17:59:00,86.3,67.9,29.38,SSE,165,0.0,0.0,54,-99.99,,,-99.99,WSDL version 423,2013-09-01 22:59:00,
2013-09-01 18:00:00,86.3,67.8,29.41,SSE,168,0.0,0.0,54,-99.99,,,-99.99,WSDL version 423,2013-09-01 23:00:00,
2013-09-01 18:03:00,86.2,67.7,29.41,South,180,0.0,0.0,54,-99.99,,,-99.99,WSDL version 423,2013-09-01 23:03:00,
2013-09-01 18:04:00,86.1,67.6,29.41,South,190,0.0,0.0,54,-99.99,,,-99.99,WSDL version 423,2013-09-01 23:04:00,
2013-09-01 18:05:00,86.0,67.5,29.41,East,101,0.0,0.0,54,-99.99,,,-99.99,WSDL version 423,2013-09-01 23:05:00,
2013-09-01 18:06:00,85.9,67.5,29.41,NNE,18,0.0,0.0,54,-99.99,,,-99.99,WSDL version 423,2013-09-01 23:06:00,
2013-09-01 18:08:00,85.7,67.3,29.41,SW,225,0.0,0.0,54,-99.99,,,-99.99,WSDL version 423,2013-09-01 23:08:00,
2013-09-01 18:09:00,85.6,67.3,29.41,WSW,251,0.0,0.0,55,-99.99,,,-99.99,WSDL version 423,2013-09-01 23:09:00,
2013-09-01 18:12:00,85.4,67.3,29.41,SSE,158,0.0,0.0,55,-99.99,,,-99.99,WSDL version 423,2013-09-01 23:12:00,
2013-09-01 18:14:00,85.2,67.5,29.41,SSE,165,0.0,0.0,56,-99.99,,,-99.99,WSDL version 423,2013-09-01 23:14:00,
2013-09-01 18:16:00,84.9,67.4,29.41,SSW,205,0.0,0.0,56,-99.99,,,-99.99,WSDL version 423,2013-09-01 23:16:00,
2013-09-01 18:19:00,84.7,67.7,29.41,SSE,167,0.0,0.0,58,-99.99,,,-99.99,WSDL version 423,2013-09-01 23:19:00,
2013-09-01 18:20:00,84.6,67.9,29.41,South,170,0.0,0.0,58,-99.99,,,-99.99,WSDL version 423,2013-09-01 23:20:00,
2013-09-01 18:21:00,84.5,67.9,29.41,South,173,0.0,0.0,57,-99.99,,,-99.99,WSDL version 423,2013-09-01 23:21:00,
2013-09-01 18:23:00,84.4,67.8,29.41,SE,132,0.0,0.0,58,-99.99,,,-99.99,WSDL version 423,2013-09-01 23:23:00,
2013-09-01 18:26:00,84.2,68.1,29.41,East,90,0.0,0.0,60,-99.99,,,-99.99,WSDL version 423,2013-09-01 23:26:00,
2013-09-01 18:27:00,84.2,68.2,29.41,East,90,0.0,0.0,60,-99.99,,,-99.99,WSDL version 423,2013-09-01 23:27:00,
2013-09-01 18:28:00,84.1,68.5,29.41,East,90,0.0,0.0,61,-99.99,,,-99.99,WSDL version 423,2013-09-01 23:28:00,
2013-09-01 18:31:00,83.9,68.5,29.41,ESE,105,0.0,0.0,61,-99.99,,,-99.99,WSDL version 423,2013-09-01 23:31:00,
2013-09-01 18:33:00,83.8,68.5,29.41,SE,127,0.0,0.0,61,-99.99,,,-99.99,WSDL version 423,2013-09-01 23:33:00,
2013-09-01 18:35:00,83.7,68.8,29.41,SSE,148,0.0,0.0,61,-99.99,,,-99.99,WSDL version 423,2013-09-01 23:35:00,
2013-09-01 18:38:00,83.6,68.7,29.41,South,178,0.0,0.0,61,-99.99,,,-99.99,WSDL version 423,2013-09-01 23:38:00,
2013-09-01 18:39:00,83.6,68.7,29.41,South,188,0.0,0.0,62,-99.99,,,-99.99,WSDL version 423,2013-09-01 23:39:00,
2013-09-01 18:41:00,83.5,68.8,29.41,SSE,160,0.0,0.0,62,-99.99,,,-99.99,WSDL version 423,2013-09-01 23:41:00,
2013-09-01 18:42:00,83.5,68.9,29.41,SSE,150,0.0,0.0,62,-99.99,,,-99.99,WSDL version 423,2013-09-01 23:42:00,
2013-09-01 18:44:00,83.4,69.0,29.41,SE,135,0.0,0.0,62,-99.99,,,-99.99,WSDL version 423,2013-09-01 23:44:00,
2013-09-01 18:46:00,83.3,69.1,29.41,SE,135,0.0,0.0,62,-99.99,,,-99.99,WSDL version 423,2013-09-01 23:46:00,
2013-09-01 18:47:00,83.3,69.1,29.41,SE,135,0.0,0.0,62,-99.99,,,-99.99,WSDL version 423,2013-09-01 23:47:00,
2013-09-01 18:48:00,83.3,69.0,29.41,SE,135,0.0,0.0,62,-99.99,,,-99.99,WSDL version 423,2013-09-01 23:48:00,
2013-09-01 18:51:00,83.1,69.0,29.41,SSE,158,0.0,0.0,62,-99.99,,,-99.99,WSDL version 423,2013-09-01 23:51:00,
2013-09-01 18:52:00,83.1,69.0,29.41,ESE,108,0.0,0.0,63,-99.99,,,-99.99,WSDL version 423,2013-09-01 23:52:00,
2013-09-01 18:55:00,82.9,69.1,29.41,SSE,160,0.0,0.0,63,-99.99,,,-99.99,WSDL version 423,2013-09-01 23:55:00,
2013-09-01 18:56:00,82.8,69.1,29.41,South,178,0.0,0.0,63,-99.99,,,-99.99,WSDL version 423,2013-09-01 23:56:00,
2013-09-01 19:00:00,82.7,69.0,29.41,SSE,158,0.0,0.0,63,-99.99,,,-99.99,WSDL version 423,2013-09-02 00:00:00,
2013-09-01 19:02:00,82.6,69.0,29.41,South,180,0.0,0.0,64,-99.99,,,-99.99,WSDL version 423,2013-09-02 00:02:00,
2013-09-01 19:04:00,82.6,69.0,29.41,SSE,160,0.0,0.0,64,-99.99,,,-99.99,WSDL version 423,2013-09-02 00:04:00,
2013-09-01 19:07:00,82.5,69.2,29.41,SSE,160,0.0,0.0,64,-99.99,,,-99.99,WSDL version 423,2013-09-02 00:07:00,
2013-09-01 19:08:00,82.5,69.2,29.41,South,177,0.0,0.0,64,-99.99,,,-99.99,WSDL version 423,2013-09-02 00:08:00,
2013-09-01 19:13:00,82.7,69.7,29.41,South,186,0.0,0.0,65,-99.99,,,-99.99,WSDL version 423,2013-09-02 00:13:00,
2013-09-01 19:14:00,82.7,69.9,29.41,SSE,152,0.0,0.0,65,-99.99,,,-99.99,WSDL version 423,2013-09-02 00:14:00,
2013-09-01 19:17:00,82.6,69.7,29.41,SE,135,0.0,0.0,65,-99.99,,,-99.99,WSDL version 423,2013-09-02 00:17:00,
2013-09-01 19:18:00,82.5,69.7,29.41,SE,135,0.0,0.0,66,-99.99,,,-99.99,WSDL version 423,2013-09-02 00:18:00,
2013-09-01 19:19:00,82.4,69.7,29.41,SE,135,0.0,0.0,66,-99.99,,,-99.99,WSDL version 423,2013-09-02 00:19:00,
2013-09-01 19:20:00,82.4,69.7,29.41,SE,135,0.0,0.0,66,-99.99,,,-99.99,WSDL version 423,2013-09-02 00:20:00,
2013-09-01 19:23:00,82.3,70.0,29.41,WNW,285,0.0,0.0,67,-99.99,,,-99.99,WSDL version 423,2013-09-02 00:23:00,
2013-09-01 19:24:00,82.4,70.1,29.41,West,278,0.0,0.0,67,-99.99,,,-99.99,WSDL version 423,2013-09-02 00:24:00,
2013-09-01 19:26:00,82.4,70.2,29.41,WNW,286,0.0,0.0,66,-99.99,,,-99.99,WSDL version 423,2013-09-02 00:26:00,
2013-09-01 19:30:00,82.4,70.0,29.41,NW,323,0.0,0.0,67,-99.99,,,-99.99,WSDL version 423,2013-09-02 00:30:00,
2013-09-01 19:31:00,82.3,70.1,29.41,North,360,0.0,0.0,67,-99.99,,,-99.99,WSDL version 423,2013-09-02 00:31:00,
2013-09-01 19:32:00,82.3,70.1,29.41,NNE,20,0.0,0.0,67,-99.99,,,-99.99,WSDL version 423,2013-09-02 00:32:00,
2013-09-01 19:34:00,82.2,70.2,29.41,NNE,23,0.0,0.0,67,-99.99,,,-99.99,WSDL version 423,2013-09-02 00:34:00,
2013-09-01 19:36:00,82.2,70.2,29.41,NNE,25,0.0,0.0,67,-99.99,,,-99.99,WSDL version 423,2013-09-02 00:36:00,
2013-09-01 19:37:00,82.2,70.2,29.41,NE,38,0.0,0.0,67,-99.99,,,-99.99,WSDL version 423,2013-09-02 00:37:00,
2013-09-01 19:42:00,82.1,70.5,29.41,North,360,0.0,0.0,68,-99.99,,,-99.99,WSDL version 423,2013-09-02 00:42:00,
2013-09-01 19:43:00,82.1,70.4,29.41,North,360,0.0,0.0,68,-99.99,,,-99.99,WSDL version 423,2013-09-02 00:43:00,
2013-09-01 19:44:00,82.0,70.3,29.41,North,360,0.0,0.0,68,-99.99,,,-99.99,WSDL version 423,2013-09-02 00:44:00,
2013-09-01 19:49:00,81.8,70.2,29.41,North,360,0.0,0.0,68,-99.99,,,-99.99,WSDL version 423,2013-09-02 00:49:00,
2013-09-01 19:50:00,81.8,70.2,29.41,North,360,0.0,0.0,68,-99.99,,,-99.99,WSDL version 423,2013-09-02 00:50:00,
2013-09-01 19:51:00,81.8,70.2,29.41,North,360,0.0,0.0,68,-99.99,,,-99.99,WSDL version 423,2013-09-02 00:51:00,
2013-09-01 19:52:00,81.8,70.2,29.41,North,360,0.0,0.0,68,-99.99,,,-99.99,WSDL version 423,2013-09-02 00:52:00,
2013-09-01 19:54:00,81.8,70.3,29.41,North,360,0.0,0.0,69,-99.99,,,-99.99,WSDL version 423,2013-09-02 00:54:00,
2013-09-01 19:55:00,81.8,70.4,29.41,NE,45,0.0,0.0,69,-99.99,,,-99.99,WSDL version 423,2013-09-02 00:55:00,
2013-09-01 19:56:00,81.7,70.4,29.41,ESE,105,0.0,0.0,69,-99.99,,,-99.99,WSDL version 423,2013-09-02 00:56:00,
2013-09-01 19:57:00,81.7,70.5,29.41,SE,141,0.0,0.0,70,-99.99,,,-99.99,WSDL version 423,2013-09-02 00:57:00,
2013-09-01 20:00:00,81.7,70.7,29.41,South,180,0.0,0.0,70,-99.99,,,-99.99,WSDL version 423,2013-09-02 01:00:00,
2013-09-01 20:02:00,81.7,70.8,29.41,South,188,0.0,0.0,70,-99.99,,,-99.99,WSDL version 423,2013-09-02 01:02:00,
2013-09-01 20:03:00,81.7,70.9,29.41,South,178,0.0,0.0,71,-99.99,,,-99.99,WSDL version 423,2013-09-02 01:03:00,
2013-09-01 20:08:00,81.7,71.0,29.41,South,172,0.0,0.0,71,-99.99,,,-99.99,WSDL version 423,2013-09-02 01:08:00,
2013-09-01 20:09:00,81.7,71.1,29.41,SSW,203,0.0,0.0,71,-99.99,,,-99.99,WSDL version 423,2013-09-02 01:09:00,
2013-09-01 20:10:00,81.7,71.1,29.41,NW,313,0.0,0.0,71,-99.99,,,-99.99,WSDL version 423,2013-09-02 01:10:00,
2013-09-01 20:11:00,81.7,71.2,29.41,SSW,194,0.0,0.0,71,-99.99,,,-99.99,WSDL version 423,2013-09-02 01:11:00,
2013-09-01 20:16:00,82.0,71.2,29.44,South,183,0.0,0.0,70,-99.99,,,-99.99,WSDL version 423,2013-09-02 01:16:00,
2013-09-01 20:17:00,81.9,71.2,29.44,South,188,0.0,0.0,71,-99.99,,,-99.99,WSDL version 423,2013-09-02 01:17:00,
2013-09-01 20:21:00,81.7,71.0,29.44,South,188,0.0,0.0,70,-99.99,,,-99.99,WSDL version 423,2013-09-02 01:21:00,
2013-09-01 20:22:00,81.7,70.9,29.44,SSW,208,0.0,0.0,70,-99.99,,,-99.99,WSDL version 423,2013-09-02 01:22:00,
2013-09-01 20:23:00,81.7,70.8,29.44,SSW,203,0.0,0.0,70,-99.99,,,-99.99,WSDL version 423,2013-09-02 01:23:00,
2013-09-01 20:25:00,81.7,70.8,29.44,SSW,203,0.0,0.0,70,-99.99,,,-99.99,WSDL version 423,2013-09-02 01:25:00,
2013-09-01 20:27:00,81.7,70.9,29.44,SSW,200,0.0,0.0,71,-99.99,,,-99.99,WSDL version 423,2013-09-02 01:27:00,
2013-09-01 20:28:00,81.7,71.0,29.44,SSW,203,0.0,0.0,71,-99.99,,,-99.99,WSDL version 423,2013-09-02 01:28:00,
2013-09-01 20:32:00,81.7,71.2,29.44,SSW,203,0.0,0.0,71,-99.99,,,-99.99,WSDL version 423,2013-09-02 01:32:00,
2013-09-01 20:33:00,81.6,71.2,29.44,SSE,168,0.0,0.0,71,-99.99,,,-99.99,WSDL version 423,2013-09-02 01:33:00,
2013-09-01 20:37:00,81.3,71.0,29.44,SE,135,0.0,0.0,72,-99.99,,,-99.99,WSDL version 423,2013-09-02 01:37:00,
2013-09-01 20:38:00,81.3,71.0,29.44,SE,135,0.0,0.0,72,-99.99,,,-99.99,WSDL version 423,2013-09-02 01:38:00,
2013-09-01 20:39:00,81.2,71.0,29.44,SE,135,0.0,0.0,72,-99.99,,,-99.99,WSDL version 423,2013-09-02 01:39:00,
2013-09-01 20:40:00,81.2,71.0,29.44,SE,141,0.0,0.0,72,-99.99,,,-99.99,WSDL version 423,2013-09-02 01:40:00,
2013-09-01 20:42:00,81.1,71.1,29.44,SW,217,0.0,0.0,72,-99.99,,,-99.99,WSDL version 423,2013-09-02 01:42:00,
2013-09-01 20:45:00,81.2,71.1,29.44,SW,219,0.0,0.0,72,-99.99,,,-99.99,WSDL version 423,2013-09-02 01:45:00,
2013-09-01 20:47:00,81.2,71.2,29.44,South,178,0.0,0.0,72,-99.99,,,-99.99,WSDL version 423,2013-09-02 01:47:00,
2013-09-01 20:48:00,81.3,71.2,29.44,SSE,165,0.0,0.0,72,-99.99,,,-99.99,WSDL version 423,2013-09-02 01:48:00,
2013-09-01 20:49:00,81.3,71.2,29.44,SSE,158,0.0,0.0,72,-99.99,,,-99.99,WSDL version 423,2013-09-02 01:49:00,
2013-09-01 20:51:00,81.3,71.2,29.44,SSE,158,0.0,0.0,72,-99.99,,,-99.99,WSDL version 423,2013-09-02 01:51:00,
2013-09-01 20:54:00,81.3,71.2,29.44,SSW,194,0.0,0.0,72,-99.99,,,-99.99,WSDL version 423,2013-09-02 01:54:00,
2013-09-01 20:57:00,81.3,71.3,29.44,NE,42,0.0,0.0,72,-99.99,,,-99.99,WSDL version 423,2013-09-02 01:57:00,
2013-09-01 21:00:00,81.4,71.5,29.44,South,177,0.0,0.0,72,-99.99,,,-99.99,WSDL version 423,2013-09-02 02:00:00,
2013-09-01 21:02:00,81.4,71.4,29.44,South,183,0.0,0.0,72,-99.99,,,-99.99,WSDL version 423,2013-09-02 02:02:00,
2013-09-01 21:04:00,81.4,71.5,29.44,SSW,203,0.0,0.0,72,-99.99,,,-99.99,WSDL version 423,2013-09-02 02:04:00,
2013-09-01 21:06:00,81.4,71.5,29.44,South,178,0.0,0.0,72,-99.99,,,-99.99,WSDL version 423,2013-09-02 02:06:00,
2013-09-01 21:08:00,81.4,71.7,29.44,SSE,148,0.0,0.0,72,-99.99,,,-99.99,WSDL version 423,2013-09-02 02:08:00,
2013-09-01 21:09:00,81.4,71.7,29.44,SSE,160,0.0,0.0,72,-99.99,,,-99.99,WSDL version 423,2013-09-02 02:09:00,
2013-09-01 21:12:00,81.3,71.6,29.44,SSW,205,0.0,0.0,72,-99.99,,,-99.99,WSDL version 423,2013-09-02 02:12:00,
2013-09-01 21:14:00,81.3,71.6,29.44,SSW,197,0.0,0.0,72,-99.99,,,-99.99,WSDL version 423,2013-09-02 02:14:00,
2013-09-01 21:15:00,81.3,71.6,29.44,SSW,200,0.0,0.0,72,-99.99,,,-99.99,WSDL version 423,2013-09-02 02:15:00,
2013-09-01 21:17:00,81.2,71.5,29.44,SSW,203,0.0,0.0,72,-99.99,,,-99.99,WSDL version 423,2013-09-02 02:17:00,
2013-09-01 21:19:00,81.0,71.3,29.44,SSW,195,0.0,0.0,72,-99.99,,,-99.99,WSDL version 423,2013-09-02 02:19:00,
2013-09-01 21:20:00,80.9,71.3,29.44,SSW,203,0.0,0.0,72,-99.99,,,-99.99,WSDL version 423,2013-09-02 02:20:00,
2013-09-01 21:22:00,80.8,71.1,29.44,SSW,200,0.0,0.0,72,-99.99,,,-99.99,WSDL version 423,2013-09-02 02:22:00,
2013-09-01 21:23:00,80.7,71.0,29.44,SSW,203,0.0,0.0,72,-99.99,,,-99.99,WSDL version 423,2013-09-02 02:23:00,
2013-09-01 21:26:00,80.6,70.9,29.44,South,185,0.0,0.0,72,-99.99,,,-99.99,WSDL version 423,2013-09-02 02:26:00,
2013-09-01 21:28:00,80.6,71.0,29.44,SSE,152,0.0,0.0,73,-99.99,,,-99.99,WSDL version 423,2013-09-02 02:28:00,
2013-09-01 21:29:00,80.6,71.1,29.44,South,175,0.0,0.0,73,-99.99,,,-99.99,WSDL version 423,2013-09-02 02:29:00,
2013-09-01 21:30:00,80.6,71.2,29.44,SSW,193,0.0,0.0,73,-99.99,,,-99.99,WSDL version 423,2013-09-02 02:30:00,
2013-09-01 21:31:00,80.6,71.3,29.44,South,177,0.0,0.0,73,-99.99,,,-99.99,WSDL version 423,2013-09-02 02:31:00,
2013-09-01 21:34:00,80.6,71.3,29.44,South,178,0.0,0.0,73,-99.99,,,-99.99,WSDL version 423,2013-09-02 02:34:00,
2013-09-01 21:37:00,80.5,71.2,29.44,SSW,213,0.0,0.0,73,-99.99,,,-99.99,WSDL version 423,2013-09-02 02:37:00,
2013-09-01 21:38:00,80.5,71.2,29.44,SSW,203,0.0,0.0,73,-99.99,,,-99.99,WSDL version 423,2013-09-02 02:38:00,
2013-09-01 21:40:00,80.5,71.2,29.44,South,185,0.0,0.0,73,-99.99,,,-99.99,WSDL version 423,2013-09-02 02:40:00,
2013-09-01 21:41:00,80.4,71.1,29.44,SSW,195,0.0,0.0,73,-99.99,,,-99.99,WSDL version 423,2013-09-02 02:41:00,
2013-09-01 21:45:00,80.3,71.0,29.44,SW,222,0.0,0.0,73,-99.99,,,-99.99,WSDL version 423,2013-09-02 02:45:00,
2013-09-01 21:46:00,80.3,71.0,29.44,SW,225,0.0,0.0,73,-99.99,,,-99.99,WSDL version 423,2013-09-02 02:46:00,
2013-09-01 21:47:00,80.3,71.0,29.44,SW,223,0.0,0.0,73,-99.99,,,-99.99,WSDL version 423,2013-09-02 02:47:00,
2013-09-01 21:48:00,80.2,70.9,29.44,SSW,213,0.0,0.0,73,-99.99,,,-99.99,WSDL version 423,2013-09-02 02:48:00,
2013-09-01 21:49:00,80.2,70.9,29.44,SSW,194,0.0,0.0,73,-99.99,,,-99.99,WSDL version 423,2013-09-02 02:49:00,
2013-09-01 21:51:00,80.1,70.8,29.44,SSW,203,0.0,0.0,73,-99.99,,,-99.99,WSDL version 423,2013-09-02 02:51:00,
2013-09-01 21:52:00,80.0,70.8,29.44,SW,219,0.0,0.0,73,-99.99,,,-99.99,WSDL version 423,2013-09-02 02:52:00,
2013-09-01 21:54:00,80.1,70.8,29.44,SSW,203,0.0,0.0,73,-99.99,,,-99.99,WSDL version 423,2013-09-02 02:54:00,
2013-09-01 21:55:00,80.1,70.9,29.44,South,190,0.0,0.0,74,-99.99,,,-99.99,WSDL version 423,2013-09-02 02:55:00,
2013-09-01 21:56:00,80.2,70.9,29.44,SSW,194,0.0,0.0,73,-99.99,,,-99.99,WSDL version 423,2013-09-02 02:56:00,
2013-09-01 21:57:00,80.2,70.9,29.44,South,190,0.0,0.0,73,-99.99,,,-99.99,WSDL version 423,2013-09-02 02:57:00,
2013-09-01 22:00:00,80.1,70.8,29.44,South,180,0.0,0.0,73,-99.99,,,-99.99,WSDL version 423,2013-09-02 03:00:00,
2013-09-01 22:02:00,79.9,70.6,29.44,SSW,203,0.0,0.0,73,-99.99,,,-99.99,WSDL version 423,2013-09-02 03:02:00,
2013-09-01 22:03:00,79.8,70.5,29.44,SSW,211,0.0,0.0,73,-99.99,,,-99.99,WSDL version 423,2013-09-02 03:03:00,
2013-09-01 22:05:00,79.7,70.5,29.44,SW,225,0.0,0.0,74,-99.99,,,-99.99,WSDL version 423,2013-09-02 03:05:00,
2013-09-01 22:06:00,79.6,70.5,29.44,SSW,209,0.0,0.0,74,-99.99,,,-99.99,WSDL version 423,2013-09-02 03:06:00,
2013-09-01 22:07:00,79.6,70.6,29.44,South,177,0.0,0.0,74,-99.99,,,-99.99,WSDL version 423,2013-09-02 03:07:00,
2013-09-01 22:09:00,79.5,70.6,29.44,SSW,210,0.0,0.0,74,-99.99,,,-99.99,WSDL version 423,2013-09-02 03:09:00,
2013-09-01 22:12:00,79.4,70.7,29.44,SW,225,0.0,0.0,75,-99.99,,,-99.99,WSDL version 423,2013-09-02 03:12:00,
2013-09-01 22:14:00,79.4,70.7,29.44,SW,225,0.0,0.0,75,-99.99,,,-99.99,WSDL version 423,2013-09-02 03:14:00,
2013-09-01 22:15:00,79.2,70.7,29.44,SW,225,0.0,0.0,75,-99.99,,,-99.99,WSDL version 423,2013-09-02 03:15:00,
2013-09-01 22:17:00,79.1,70.6,29.44,SW,225,0.0,0.0,75,-99.99,,,-99.99,WSDL version 423,2013-09-02 03:17:00,
2013-09-01 22:21:00,78.8,70.4,29.44,South,180,0.0,0.0,76,-99.99,,,-99.99,WSDL version 423,2013-09-02 03:21:00,
2013-09-01 22:22:00,78.8,70.4,29.44,South,173,0.0,0.0,76,-99.99,,,-99.99,WSDL version 423,2013-09-02 03:22:00,
2013-09-01 22:23:00,78.7,70.4,29.44,SSE,163,0.0,0.0,76,-99.99,,,-99.99,WSDL version 423,2013-09-02 03:23:00,
2013-09-01 22:24:00,78.6,70.4,29.44,SSE,158,0.0,0.0,76,-99.99,,,-99.99,WSDL version 423,2013-09-02 03:24:00,
2013-09-01 22:25:00,78.5,70.4,29.44,SSE,158,0.0,0.0,76,-99.99,,,-99.99,WSDL version 423,2013-09-02 03:25:00,
2013-09-01 22:26:00,78.5,70.4,29.44,SSE,158,0.0,0.0,77,-99.99,,,-99.99,WSDL version 423,2013-09-02 03:26:00,
2013-09-01 22:28:00,78.4,70.4,29.44,SSE,158,0.0,0.0,77,-99.99,,,-99.99,WSDL version 423,2013-09-02 03:28:00,
2013-09-01 22:31:00,78.2,70.5,29.44,South,180,0.0,0.0,77,-99.99,,,-99.99,WSDL version 423,2013-09-02 03:31:00,
2013-09-01 22:32:00,78.2,70.4,29.44,South,180,0.0,0.0,77,-99.99,,,-99.99,WSDL version 423,2013-09-02 03:32:00,
2013-09-01 22:34:00,78.1,70.5,29.44,South,180,0.0,0.0,78,-99.99,,,-99.99,WSDL version 423,2013-09-02 03:34:00,
2013-09-01 22:35:00,78.1,70.5,29.44,South,180,0.0,0.0,78,-99.99,,,-99.99,WSDL version 423,2013-09-02 03:35:00,
2013-09-01 22:39:00,78.0,70.5,29.44,South,180,0.0,0.0,78,-99.99,,,-99.99,WSDL version 423,2013-09-02 03:39:00,
2013-09-01 22:40:00,77.9,70.5,29.44,South,180,0.0,0.0,78,-99.99,,,-99.99,WSDL version 423,2013-09-02 03:40:00,
2013-09-01 22:41:00,77.9,70.4,29.44,South,180,0.0,0.0,78,-99.99,,,-99.99,WSDL version 423,2013-09-02 03:41:00,
2013-09-01 22:43:00,77.8,70.5,29.44,SSW,193,0.0,0.0,79,-99.99,,,-99.99,WSDL version 423,2013-09-02 03:43:00,
2013-09-01 22:45:00,77.7,70.6,29.44,SSW,203,0.0,0.0,79,-99.99,,,-99.99,WSDL version 423,2013-09-02 03:45:00,
2013-09-01 22:46:00,77.7,70.6,29.44,SSW,203,0.0,0.0,79,-99.99,,,-99.99,WSDL version 423,2013-09-02 03:46:00,
2013-09-01 22:48:00,77.8,70.7,29.44,SSW,200,0.0,0.0,79,-99.99,,,-99.99,WSDL version 423,2013-09-02 03:48:00,
2013-09-01 22:49:00,77.8,70.8,29.44,South,188,0.0,0.0,80,-99.99,,,-99.99,WSDL version 423,2013-09-02 03:49:00,
2013-09-01 22:51:00,77.9,71.0,29.44,SW,222,0.0,0.0,80,-99.99,,,-99.99,WSDL version 423,2013-09-02 03:51:00,
2013-09-01 22:56:00,78.0,71.2,29.44,SW,219,0.0,0.0,80,-99.99,,,-99.99,WSDL version 423,2013-09-02 03:56:00,
2013-09-01 22:57:00,77.9,71.2,29.44,SSW,205,0.0,0.0,80,-99.99,,,-99.99,WSDL version 423,2013-09-02 03:57:00,
2013-09-01 22:58:00,77.9,71.2,29.44,South,186,0.0,0.0,80,-99.99,,,-99.99,WSDL version 423,2013-09-02 03:58:00,
2013-09-01 22:59:00,77.9,71.1,29.44,South,183,0.0,0.0,80,-99.99,,,-99.99,WSDL version 423,2013-09-02 03:59:00,
2013-09-01 23:01:00,77.8,71.2,29.44,SSW,208,0.0,0.0,81,-99.99,,,-99.99,WSDL version 423,2013-09-02 04:01:00,
2013-09-01 23:02:00,77.8,71.2,29.44,SW,219,0.0,0.0,81,-99.99,,,-99.99,WSDL version 423,2013-09-02 04:02:00,
2013-09-01 23:03:00,77.8,71.3,29.44,SW,214,0.0,0.0,81,-99.99,,,-99.99,WSDL version 423,2013-09-02 04:03:00,
2013-09-01 23:05:00,77.9,71.5,29.44,SSW,203,0.0,0.0,81,-99.99,,,-99.99,WSDL version 423,2013-09-02 04:05:00,
2013-09-01 23:07:00,77.9,71.5,29.44,South,186,0.0,0.0,81,-99.99,,,-99.99,WSDL version 423,2013-09-02 04:07:00,
2013-09-01 23:08:00,77.9,71.5,29.44,South,180,0.0,0.0,81,-99.99,,,-99.99,WSDL version 423,2013-09-02 04:08:00,
2013-09-01 23:12:00,77.9,71.5,29.44,SW,225,0.0,0.0,81,-99.99,,,-99.99,WSDL version 423,2013-09-02 04:12:00,
2013-09-01 23:13:00,77.8,71.4,29.44,SW,225,0.0,0.0,81,-99.99,,,-99.99,WSDL version 423,2013-09-02 04:13:00,
2013-09-01 23:14:00,77.8,71.4,29.44,SW,220,0.0,0.0,81,-99.99,,,-99.99,WSDL version 423,2013-09-02 04:14:00,
2013-09-01 23:17:00,77.7,71.3,29.44,South,186,0.0,0.0,81,-99.99,,,-99.99,WSDL version 423,2013-09-02 04:17:00,
2013-09-01 23:19:00,77.8,71.2,29.44,South,170,0.0,0.0,80,-99.99,,,-99.99,WSDL version 423,2013-09-02 04:19:00,
2013-09-01 23:20:00,77.8,71.2,29.44,SSW,200,0.0,0.0,80,-99.99,,,-99.99,WSDL version 423,2013-09-02 04:20:00,
2013-09-01 23:21:00,77.8,71.2,29.44,SSW,203,0.0,0.0,80,-99.99,,,-99.99,WSDL version 423,2013-09-02 04:21:00,
2013-09-01 23:22:00,77.9,71.2,29.44,SSW,193,0.0,0.0,80,-99.99,,,-99.99,WSDL version 423,2013-09-02 04:22:00,
2013-09-01 23:25:00,77.8,71.1,29.44,SSW,205,0.0,0.0,80,-99.99,,,-99.99,WSDL version 423,2013-09-02 04:25:00,
2013-09-01 23:27:00,77.8,71.1,29.44,South,191,0.0,0.0,80,-99.99,,,-99.99,WSDL version 423,2013-09-02 04:27:00,
2013-09-01 23:28:00,77.8,71.1,29.44,South,173,0.0,0.0,80,-99.99,,,-99.99,WSDL version 423,2013-09-02 04:28:00,
2013-09-01 23:30:00,77.9,71.2,29.44,South,180,0.0,0.0,80,-99.99,,,-99.99,WSDL version 423,2013-09-02 04:30:00,
2013-09-01 23:31:00,77.9,71.3,29.44,South,186,0.0,0.0,80,-99.99,,,-99.99,WSDL version 423,2013-09-02 04:31:00,
2013-09-01 23:32:00,77.9,71.3,29.44,South,175,0.0,0.0,80,-99.99,,,-99.99,WSDL version 423,2013-09-02 04:32:00,
2013-09-01 23:33:00,77.9,71.3,29.44,South,173,0.0,0.0,80,-99.99,,,-99.99,WSDL version 423,2013-09-02 04:33:00,
2013-09-01 23:35:00,77.9,71.2,29.44,SSW,195,0.0,0.0,80,-99.99,,,-99.99,WSDL version 423,2013-09-02 04:35:00,
2013-09-01 23:36:00,77.9,71.2,29.44,South,185,0.0,0.0,80,-99.99,,,-99.99,WSDL version 423,2013-09-02 04:36:00,
2013-09-01 23:37:00,77.8,71.2,29.44,South,172,0.0,0.0,80,-99.99,,,-99.99,WSDL version 423,2013-09-02 04:37:00,
2013-09-01 23:41:00,77.5,70.8,29.44,SSE,149,0.0,0.0,80,-99.99,,,-99.99,WSDL version 423,2013-09-02 04:41:00,
2013-09-01 23:42:00,77.4,70.7,29.44,SE,138,0.0,0.0,80,-99.99,,,-99.99,WSDL version 423,2013-09-02 04:42:00,
2013-09-01 23:43:00,77.3,70.8,29.44,SE,135,0.0,0.0,81,-99.99,,,-99.99,WSDL version 423,2013-09-02 04:43:00,
2013-09-01 23:44:00,77.3,70.8,29.44,SE,135,0.0,0.0,81,-99.99,,,-99.99,WSDL version 423,2013-09-02 04:44:00,
2013-09-01 23:45:00,77.2,70.8,29.44,SE,135,0.0,0.0,81,-99.99,,,-99.99,WSDL version 423,2013-09-02 04:45:00,
2013-09-01 23:48:00,77.1,70.9,29.44,SE,135,0.0,0.0,81,-99.99,,,-99.99,WSDL version 423,2013-09-02 04:48:00,
2013-09-01 23:49:00,77.1,70.9,29.44,SE,129,0.0,0.0,81,-99.99,,,-99.99,WSDL version 423,2013-09-02 04:49:00,
2013-09-01 23:50:00,77.1,70.8,29.44,ESE,120,0.0,0.0,81,-99.99,,,-99.99,WSDL version 423,2013-09-02 04:50:00,
2013-09-01 23:51:00,77.0,70.8,29.44,ESE,113,0.0,0.0,81,-99.99,,,-99.99,WSDL version 423,2013-09-02 04:51:00,
2013-09-01 23:53:00,76.9,70.8,29.44,ESE,118,0.0,0.0,82,-99.99,,,-99.99,WSDL version 423,2013-09-02 04:53:00,
2013-09-01 23:56:00,76.8,71.0,29.44,ENE,75,0.0,0.0,82,-99.99,,,-99.99,WSDL version 423,2013-09-02 04:56:00,
2013-09-01 23:57:00,76.8,71.0,29.44,ESE,110,0.0,0.0,82,-99.99,,,-99.99,WSDL version 423,2013-09-02 04:57:00,
2013-09-01 23:58:00,76.8,71.0,29.44,South,169,0.0,0.0,83,-99.99,,,-99.99,WSDL version 423,2013-09-02 04:58:00,
2013-09-01 23:59:00,76.8,71.1,29.44,SSE,165,0.0,0.0,83,-99.99,,,-99.99,WSDL version 423,2013-09-02 04:59:00,